<?xml version='1.0' encoding='UTF-8'?><gpx version="1.1" creator="JPX - https://github.com/jenetics/jpx" xmlns="http://www.topografix.com/GPX/1/1"><trk><trkseg><trkpt lat="43.78272354538024" lon="10.92208061043575"><ele>61.50000000000001</ele><time>2026-04-16T10:39:53.001Z</time></trkpt><trkpt lat="43.78266586720959" lon="10.9220124049426"><ele>61.0</ele><time>2026-04-16T10:39:57.001Z</time></trkpt><trkpt lat="43.78262005890211" lon="10.921927667143507"><ele>60.5</ele><time>2026-04-16T10:40:00Z</time></trkpt><trkpt lat="43.782565227436585" lon="10.921874608238486"><ele>60.0</ele><time>2026-04-16T10:40:03Z</time></trkpt><trkpt lat="43.782492587629584" lon="10.921822785399808"><ele>59.50000000000001</ele><time>2026-04-16T10:40:07Z</time></trkpt><trkpt lat="43.78248927238148" lon="10.921709565927518"><ele>59.0</ele><time>2026-04-16T10:40:11Z</time></trkpt><trkpt lat="43.78253227499522" lon="10.921621033259093"><ele>59.00000000000001</ele><time>2026-04-16T10:40:16Z</time></trkpt><trkpt lat="43.78259293696152" lon="10.921554416930062"><ele>59.0</ele><time>2026-04-16T10:40:20Z</time></trkpt><trkpt lat="43.782655985584285" lon="10.921495693553704"><ele>59.0</ele><time>2026-04-16T10:40:23.999Z</time></trkpt><trkpt lat="43.78273044088977" lon="10.921449118874412"><ele>59.0</ele><time>2026-04-16T10:40:27.999Z</time></trkpt><trkpt lat="43.782798640021504" lon="10.921400057204549"><ele>59.00000000000001</ele><time>2026-04-16T10:40:31.999Z</time></trkpt><trkpt lat="43.78285919776056" lon="10.921332671503128"><ele>59.0</ele><time>2026-04-16T10:40:35.999Z</time></trkpt><trkpt lat="43.782848722077794" lon="10.92123045242559"><ele>58.833333333333336</ele><time>2026-04-16T10:40:38.999Z</time></trkpt><trkpt lat="43.782799611538024" lon="10.921128293271922"><ele>58.66666666666667</ele><time>2026-04-16T10:40:42.999Z</time></trkpt><trkpt lat="43.78276084155644" lon="10.921044779554943"><ele>58.5</ele><time>2026-04-16T10:40:45.999Z</time></trkpt><trkpt lat="43.782715428933194" lon="10.920982038379492"><ele>58.33333333333333</ele><time>2026-04-16T10:40:48.999Z</time></trkpt><trkpt lat="43.782678068062054" lon="10.920884830276119"><ele>58.166666666666664</ele><time>2026-04-16T10:40:52.999Z</time></trkpt><trkpt lat="43.78263592789825" lon="10.920785285476882"><ele>58.0</ele><time>2026-04-16T10:40:56.999Z</time></trkpt><trkpt lat="43.78259628462641" lon="10.920712558183915"><ele>57.28571428571429</ele><time>2026-04-16T10:40:59.999Z</time></trkpt><trkpt lat="43.7825595890892" lon="10.920630822335555"><ele>56.57142857142857</ele><time>2026-04-16T10:41:02.999Z</time></trkpt><trkpt lat="43.78252404581712" lon="10.92054807700611"><ele>55.85714285714286</ele><time>2026-04-16T10:41:05.999Z</time></trkpt><trkpt lat="43.78249343375259" lon="10.920466906379957"><ele>55.142857142857146</ele><time>2026-04-16T10:41:08.999Z</time></trkpt><trkpt lat="43.782455060374055" lon="10.92038240448571"><ele>54.42857142857143</ele><time>2026-04-16T10:41:11.999Z</time></trkpt><trkpt lat="43.78241493075582" lon="10.920300986543495"><ele>53.714285714285715</ele><time>2026-04-16T10:41:14.999Z</time></trkpt><trkpt lat="43.782367821554566" lon="10.92020579719346"><ele>53.0</ele><time>2026-04-16T10:41:18.999Z</time></trkpt><trkpt lat="43.78233083545038" lon="10.920117309136993"><ele>52.66666666666667</ele><time>2026-04-16T10:41:21.998Z</time></trkpt><trkpt lat="43.782280942889486" lon="10.920032283077779"><ele>52.333333333333336</ele><time>2026-04-16T10:41:24.998Z</time></trkpt><trkpt lat="43.78223164155509" lon="10.919940292099005"><ele>52.0</ele><time>2026-04-16T10:41:27.998Z</time></trkpt><trkpt lat="43.782182976652194" lon="10.919856954193618"><ele>51.66666666666667</ele><time>2026-04-16T10:41:30.998Z</time></trkpt><trkpt lat="43.78214268890109" lon="10.919771415614207"><ele>51.333333333333336</ele><time>2026-04-16T10:41:33.998Z</time></trkpt><trkpt lat="43.78209346555834" lon="10.919681065576448"><ele>51.0</ele><time>2026-04-16T10:41:36.999Z</time></trkpt><trkpt lat="43.782047092125325" lon="10.919594834341115"><ele>51.0</ele><time>2026-04-16T10:41:39.999Z</time></trkpt><trkpt lat="43.782008153422225" lon="10.919506883598649"><ele>51.0</ele><time>2026-04-16T10:41:42.999Z</time></trkpt><trkpt lat="43.7819753056466" lon="10.919414629465388"><ele>51.0</ele><time>2026-04-16T10:41:45.999Z</time></trkpt><trkpt lat="43.78193188462648" lon="10.919315240786705"><ele>51.0</ele><time>2026-04-16T10:41:48.999Z</time></trkpt><trkpt lat="43.78187985746602" lon="10.919227400093645"><ele>51.0</ele><time>2026-04-16T10:41:51.999Z</time></trkpt><trkpt lat="43.7818385567871" lon="10.919128733906499"><ele>51.0</ele><time>2026-04-16T10:41:54.999Z</time></trkpt><trkpt lat="43.78178924988844" lon="10.919028668037663"><ele>50.5</ele><time>2026-04-16T10:41:57.999Z</time></trkpt><trkpt lat="43.7817550607986" lon="10.918953869324787"><ele>50.0</ele><time>2026-04-16T10:41:59.999Z</time></trkpt><trkpt lat="43.781712833493884" lon="10.918848957488377"><ele>49.5</ele><time>2026-04-16T10:42:02.999Z</time></trkpt><trkpt lat="43.78165996418709" lon="10.918755832368324"><ele>49.0</ele><time>2026-04-16T10:42:05.999Z</time></trkpt><trkpt lat="43.78161901946093" lon="10.918646454502865"><ele>48.5</ele><time>2026-04-16T10:42:08.999Z</time></trkpt><trkpt lat="43.781562904863655" lon="10.918567926154862"><ele>48.0</ele><time>2026-04-16T10:42:11.999Z</time></trkpt><trkpt lat="43.7815254715205" lon="10.91846984883958"><ele>47.333333333333336</ele><time>2026-04-16T10:42:14.999Z</time></trkpt><trkpt lat="43.78149328304894" lon="10.918373452148446"><ele>46.666666666666664</ele><time>2026-04-16T10:42:17.999Z</time></trkpt><trkpt lat="43.781444044525216" lon="10.918277374945223"><ele>46.0</ele><time>2026-04-16T10:42:20.999Z</time></trkpt><trkpt lat="43.7813946235736" lon="10.918190887698149"><ele>45.33333333333333</ele><time>2026-04-16T10:42:23.999Z</time></trkpt><trkpt lat="43.78135303194884" lon="10.91810141093205"><ele>44.666666666666664</ele><time>2026-04-16T10:42:26.999Z</time></trkpt><trkpt lat="43.78130010859069" lon="10.918020569140113"><ele>44.0</ele><time>2026-04-16T10:42:29.999Z</time></trkpt><trkpt lat="43.78124450639989" lon="10.917947041846384"><ele>44.0</ele><time>2026-04-16T10:42:32.999Z</time></trkpt><trkpt lat="43.781188980484735" lon="10.917873863641582"><ele>44.0</ele><time>2026-04-16T10:42:35.999Z</time></trkpt><trkpt lat="43.7811335173428" lon="10.9177987837682"><ele>44.0</ele><time>2026-04-16T10:42:38.999Z</time></trkpt><trkpt lat="43.7810844941667" lon="10.9177148747156"><ele>44.0</ele><time>2026-04-16T10:42:41.999Z</time></trkpt><trkpt lat="43.78101682706315" lon="10.917660810650911"><ele>44.0</ele><time>2026-04-16T10:42:44.999Z</time></trkpt><trkpt lat="43.78095174730282" lon="10.917598226279205"><ele>44.0</ele><time>2026-04-16T10:42:47.999Z</time></trkpt><trkpt lat="43.78088982718323" lon="10.917541183853562"><ele>43.83333333333333</ele><time>2026-04-16T10:42:50.999Z</time></trkpt><trkpt lat="43.78083003648503" lon="10.917474255314797"><ele>43.666666666666664</ele><time>2026-04-16T10:42:53.999Z</time></trkpt><trkpt lat="43.78075765286398" lon="10.91741728768848"><ele>43.5</ele><time>2026-04-16T10:42:56.999Z</time></trkpt><trkpt lat="43.780690621713454" lon="10.91736185808208"><ele>43.333333333333336</ele><time>2026-04-16T10:42:59.999Z</time></trkpt><trkpt lat="43.78062713203266" lon="10.917323248083145"><ele>43.16666666666667</ele><time>2026-04-16T10:43:02.999Z</time></trkpt><trkpt lat="43.780552760549284" lon="10.917285250830036"><ele>43.0</ele><time>2026-04-16T10:43:05.999Z</time></trkpt><trkpt lat="43.78046926803116" lon="10.917268396845605"><ele>43.0</ele><time>2026-04-16T10:43:08.999Z</time></trkpt><trkpt lat="43.78039198097705" lon="10.917256130358098"><ele>43.0</ele><time>2026-04-16T10:43:11.999Z</time></trkpt><trkpt lat="43.78029589376482" lon="10.917253084240143"><ele>43.0</ele><time>2026-04-16T10:43:14.999Z</time></trkpt><trkpt lat="43.78020897990942" lon="10.917226241294038"><ele>43.0</ele><time>2026-04-16T10:43:17.999Z</time></trkpt><trkpt lat="43.7801151286026" lon="10.917225522445378"><ele>43.0</ele><time>2026-04-16T10:43:20.999Z</time></trkpt><trkpt lat="43.780049469135854" lon="10.917221805896537"><ele>43.0</ele><time>2026-04-16T10:43:22.999Z</time></trkpt><trkpt lat="43.779966665716046" lon="10.917190953106015"><ele>42.5</ele><time>2026-04-16T10:43:25.999Z</time></trkpt><trkpt lat="43.779881696013064" lon="10.917183098251025"><ele>42.0</ele><time>2026-04-16T10:43:29Z</time></trkpt><trkpt lat="43.77979748897204" lon="10.917189481060417"><ele>41.5</ele><time>2026-04-16T10:43:32Z</time></trkpt><trkpt lat="43.77971288811841" lon="10.917203538406202"><ele>41.0</ele><time>2026-04-16T10:43:35Z</time></trkpt><trkpt lat="43.779619399986004" lon="10.917208500070227"><ele>40.5</ele><time>2026-04-16T10:43:38Z</time></trkpt><trkpt lat="43.779558993724926" lon="10.917235809622383"><ele>40.0</ele><time>2026-04-16T10:43:40Z</time></trkpt><trkpt lat="43.77948105198828" lon="10.917229730257803"><ele>40.0</ele><time>2026-04-16T10:43:43Z</time></trkpt><trkpt lat="43.77940761404577" lon="10.917267208254279"><ele>40.0</ele><time>2026-04-16T10:43:46Z</time></trkpt><trkpt lat="43.77932833202635" lon="10.917255132730151"><ele>40.0</ele><time>2026-04-16T10:43:49Z</time></trkpt><trkpt lat="43.77924580898019" lon="10.91727343374573"><ele>40.0</ele><time>2026-04-16T10:43:52Z</time></trkpt><trkpt lat="43.77916110011789" lon="10.917286790642239"><ele>40.0</ele><time>2026-04-16T10:43:55Z</time></trkpt><trkpt lat="43.77908297000541" lon="10.917312884845883"><ele>40.0</ele><time>2026-04-16T10:43:58Z</time></trkpt><trkpt lat="43.779003690173965" lon="10.917326569301347"><ele>40.0</ele><time>2026-04-16T10:44:01Z</time></trkpt><trkpt lat="43.778923087079534" lon="10.917327433617146"><ele>40.0</ele><time>2026-04-16T10:44:04Z</time></trkpt><trkpt lat="43.77884082401331" lon="10.917345766661281"><ele>40.0</ele><time>2026-04-16T10:44:07Z</time></trkpt><trkpt lat="43.77878087579741" lon="10.91737416383578"><ele>40.0</ele><time>2026-04-16T10:44:09Z</time></trkpt><trkpt lat="43.77869120692091" lon="10.917399328526763"><ele>40.0</ele><time>2026-04-16T10:44:12Z</time></trkpt><trkpt lat="43.77861070196397" lon="10.917419585914628"><ele>40.0</ele><time>2026-04-16T10:44:15Z</time></trkpt><trkpt lat="43.77852259501149" lon="10.917440394770633"><ele>39.833333333333336</ele><time>2026-04-16T10:44:18Z</time></trkpt><trkpt lat="43.77845804903074" lon="10.917444974618967"><ele>39.66666666666667</ele><time>2026-04-16T10:44:20Z</time></trkpt><trkpt lat="43.778394006432" lon="10.917459890743103"><ele>39.5</ele><time>2026-04-16T10:44:22Z</time></trkpt><trkpt lat="43.77830562326234" lon="10.917463707565233"><ele>39.333333333333336</ele><time>2026-04-16T10:44:25Z</time></trkpt><trkpt lat="43.77820940136634" lon="10.917473107034102"><ele>39.166666666666664</ele><time>2026-04-16T10:44:28Z</time></trkpt><trkpt lat="43.7781275450601" lon="10.917488920996679"><ele>39.0</ele><time>2026-04-16T10:44:31Z</time></trkpt><trkpt lat="43.77805360755668" lon="10.917520989393804"><ele>39.0</ele><time>2026-04-16T10:44:34Z</time></trkpt><trkpt lat="43.77798166384122" lon="10.917542839915264"><ele>39.0</ele><time>2026-04-16T10:44:36Z</time></trkpt><trkpt lat="43.777898607466845" lon="10.917559674218229"><ele>39.0</ele><time>2026-04-16T10:44:39Z</time></trkpt><trkpt lat="43.777821409288855" lon="10.917612455231653"><ele>39.0</ele><time>2026-04-16T10:44:42Z</time></trkpt><trkpt lat="43.77773034988167" lon="10.917617096552071"><ele>39.0</ele><time>2026-04-16T10:44:45Z</time></trkpt><trkpt lat="43.77764051648521" lon="10.917647335977804"><ele>39.0</ele><time>2026-04-16T10:44:48Z</time></trkpt><trkpt lat="43.77757603681087" lon="10.917661011785087"><ele>39.2</ele><time>2026-04-16T10:44:50Z</time></trkpt><trkpt lat="43.77748759694669" lon="10.917668062163392"><ele>39.4</ele><time>2026-04-16T10:44:53Z</time></trkpt><trkpt lat="43.77739229302521" lon="10.917680356332507"><ele>39.6</ele><time>2026-04-16T10:44:56Z</time></trkpt><trkpt lat="43.77730596766892" lon="10.917688821595934"><ele>39.8</ele><time>2026-04-16T10:44:59Z</time></trkpt><trkpt lat="43.77721106320164" lon="10.917715998459647"><ele>40.0</ele><time>2026-04-16T10:45:02Z</time></trkpt><trkpt lat="43.777121753054885" lon="10.91771831115942"><ele>40.0</ele><time>2026-04-16T10:45:05Z</time></trkpt><trkpt lat="43.777046185745135" lon="10.917739975277147"><ele>40.0</ele><time>2026-04-16T10:45:08Z</time></trkpt><trkpt lat="43.776960602514926" lon="10.917777457703547"><ele>40.0</ele><time>2026-04-16T10:45:11Z</time></trkpt><trkpt lat="43.77686677590084" lon="10.91779145170622"><ele>40.0</ele><time>2026-04-16T10:45:14Z</time></trkpt><trkpt lat="43.77678987324428" lon="10.917807284235833"><ele>40.0</ele><time>2026-04-16T10:45:16.999Z</time></trkpt><trkpt lat="43.77671476762873" lon="10.917831286074843"><ele>40.0</ele><time>2026-04-16T10:45:19.999Z</time></trkpt><trkpt lat="43.77663345309664" lon="10.917832232158126"><ele>39.833333333333336</ele><time>2026-04-16T10:45:22.999Z</time></trkpt><trkpt lat="43.77655867400052" lon="10.917861879492452"><ele>39.66666666666667</ele><time>2026-04-16T10:45:25.999Z</time></trkpt><trkpt lat="43.77647333059001" lon="10.917868553446718"><ele>39.5</ele><time>2026-04-16T10:45:28.999Z</time></trkpt><trkpt lat="43.77639425184286" lon="10.917886581977946"><ele>39.333333333333336</ele><time>2026-04-16T10:45:31.999Z</time></trkpt><trkpt lat="43.776308820572446" lon="10.917916264525982"><ele>39.166666666666664</ele><time>2026-04-16T10:45:35Z</time></trkpt><trkpt lat="43.776243892630546" lon="10.917947399132702"><ele>39.0</ele><time>2026-04-16T10:45:38Z</time></trkpt><trkpt lat="43.77616988796248" lon="10.91795947218935"><ele>39.0</ele><time>2026-04-16T10:45:41Z</time></trkpt><trkpt lat="43.77609295524594" lon="10.917981402446756"><ele>39.0</ele><time>2026-04-16T10:45:44Z</time></trkpt><trkpt lat="43.776005726465705" lon="10.917974720109955"><ele>39.0</ele><time>2026-04-16T10:45:47Z</time></trkpt><trkpt lat="43.77591969024973" lon="10.917993052827194"><ele>39.0</ele><time>2026-04-16T10:45:50Z</time></trkpt><trkpt lat="43.77583718249558" lon="10.918020767947214"><ele>39.0</ele><time>2026-04-16T10:45:53Z</time></trkpt><trkpt lat="43.775759784759735" lon="10.918039970634432"><ele>39.0</ele><time>2026-04-16T10:45:56Z</time></trkpt><trkpt lat="43.77567148504414" lon="10.918053506413617"><ele>38.85714285714286</ele><time>2026-04-16T10:45:59Z</time></trkpt><trkpt lat="43.77563688729057" lon="10.918146114556645"><ele>38.71428571428571</ele><time>2026-04-16T10:46:03Z</time></trkpt><trkpt lat="43.77559701314608" lon="10.918220868191243"><ele>38.57142857142857</ele><time>2026-04-16T10:46:05Z</time></trkpt><trkpt lat="43.7755462605869" lon="10.918295629396958"><ele>38.42857142857143</ele><time>2026-04-16T10:46:08Z</time></trkpt><trkpt lat="43.77549882830938" lon="10.918368335171316"><ele>38.28571428571429</ele><time>2026-04-16T10:46:11Z</time></trkpt><trkpt lat="43.77546116304669" lon="10.918453708671858"><ele>38.14285714285714</ele><time>2026-04-16T10:46:14Z</time></trkpt><trkpt lat="43.77542691138765" lon="10.918545903959373"><ele>38.0</ele><time>2026-04-16T10:46:17Z</time></trkpt><trkpt lat="43.7753961570088" lon="10.918633967317485"><ele>38.0</ele><time>2026-04-16T10:46:21Z</time></trkpt><trkpt lat="43.77538102298279" lon="10.918522211421466"><ele>38.0</ele><time>2026-04-16T10:46:41Z</time></trkpt><trkpt lat="43.7753247047075" lon="10.9184801677715"><ele>38.0</ele><time>2026-04-16T10:46:44Z</time></trkpt><trkpt lat="43.7752563001006" lon="10.918445464231946"><ele>38.0</ele><time>2026-04-16T10:46:47Z</time></trkpt><trkpt lat="43.77519752193538" lon="10.918402721895308"><ele>38.0</ele><time>2026-04-16T10:46:50Z</time></trkpt><trkpt lat="43.775137285644014" lon="10.918342322190405"><ele>38.0</ele><time>2026-04-16T10:46:53Z</time></trkpt><trkpt lat="43.77508329307546" lon="10.918286540923763"><ele>38.0</ele><time>2026-04-16T10:46:56Z</time></trkpt><trkpt lat="43.7750011482864" lon="10.918238641190747"><ele>37.714285714285715</ele><time>2026-04-16T10:47:00Z</time></trkpt><trkpt lat="43.77493271954301" lon="10.918233490184624"><ele>37.42857142857143</ele><time>2026-04-16T10:47:03Z</time></trkpt><trkpt lat="43.77485926850622" lon="10.918252995386725"><ele>37.142857142857146</ele><time>2026-04-16T10:47:06Z</time></trkpt><trkpt lat="43.774791007189116" lon="10.918286923053056"><ele>36.85714285714286</ele><time>2026-04-16T10:47:09Z</time></trkpt><trkpt lat="43.77470814557938" lon="10.918295847445492"><ele>36.57142857142857</ele><time>2026-04-16T10:47:12Z</time></trkpt><trkpt lat="43.77463308740033" lon="10.918320041581705"><ele>36.28571428571429</ele><time>2026-04-16T10:47:15Z</time></trkpt><trkpt lat="43.774561727157284" lon="10.918326147940459"><ele>36.0</ele><time>2026-04-16T10:47:18Z</time></trkpt><trkpt lat="43.77448393159049" lon="10.918352624488442"><ele>36.0</ele><time>2026-04-16T10:47:21Z</time></trkpt><trkpt lat="43.7744033613777" lon="10.918368107317967"><ele>36.0</ele><time>2026-04-16T10:47:24Z</time></trkpt><trkpt lat="43.77431539947179" lon="10.918398645510603"><ele>36.0</ele><time>2026-04-16T10:47:27Z</time></trkpt><trkpt lat="43.774235619650085" lon="10.918404031947988"><ele>36.0</ele><time>2026-04-16T10:47:30Z</time></trkpt><trkpt lat="43.77415578432614" lon="10.91842284555951"><ele>36.0</ele><time>2026-04-16T10:47:33Z</time></trkpt><trkpt lat="43.77407152847571" lon="10.918450000442629"><ele>36.0</ele><time>2026-04-16T10:47:36Z</time></trkpt><trkpt lat="43.773992294747096" lon="10.918459940676046"><ele>36.166666666666664</ele><time>2026-04-16T10:47:39Z</time></trkpt><trkpt lat="43.77391179932934" lon="10.918509170223338"><ele>36.333333333333336</ele><time>2026-04-16T10:47:42Z</time></trkpt><trkpt lat="43.77384149583296" lon="10.918569632813234"><ele>36.5</ele><time>2026-04-16T10:47:45Z</time></trkpt><trkpt lat="43.77378969158202" lon="10.918651308583222"><ele>36.66666666666667</ele><time>2026-04-16T10:47:48Z</time></trkpt><trkpt lat="43.77375854622449" lon="10.918752859727563"><ele>36.833333333333336</ele><time>2026-04-16T10:47:51Z</time></trkpt><trkpt lat="43.77370938350761" lon="10.91882673497698"><ele>37.0</ele><time>2026-04-16T10:47:54Z</time></trkpt><trkpt lat="43.77364480764737" lon="10.918878812605627"><ele>37.0</ele><time>2026-04-16T10:47:57Z</time></trkpt><trkpt lat="43.773568035175224" lon="10.918902068721525"><ele>37.0</ele><time>2026-04-16T10:48:00Z</time></trkpt><trkpt lat="43.77348453268882" lon="10.918892572325156"><ele>37.0</ele><time>2026-04-16T10:48:03Z</time></trkpt><trkpt lat="43.773410368335156" lon="10.918891152963"><ele>37.0</ele><time>2026-04-16T10:48:06Z</time></trkpt><trkpt lat="43.773339383871395" lon="10.918852267752957"><ele>37.0</ele><time>2026-04-16T10:48:09Z</time></trkpt><trkpt lat="43.77327775732737" lon="10.91879758181023"><ele>37.0</ele><time>2026-04-16T10:48:12Z</time></trkpt><trkpt lat="43.77322179871893" lon="10.918722773218585"><ele>36.833333333333336</ele><time>2026-04-16T10:48:15Z</time></trkpt><trkpt lat="43.773169625613626" lon="10.918629925895527"><ele>36.66666666666667</ele><time>2026-04-16T10:48:17.999Z</time></trkpt><trkpt lat="43.77308349189224" lon="10.918640519480961"><ele>36.5</ele><time>2026-04-16T10:48:20.999Z</time></trkpt><trkpt lat="43.773019638870295" lon="10.918622889109843"><ele>36.333333333333336</ele><time>2026-04-16T10:48:23.999Z</time></trkpt><trkpt lat="43.77294648407677" lon="10.91859073620142"><ele>36.166666666666664</ele><time>2026-04-16T10:48:26.999Z</time></trkpt><trkpt lat="43.77286793589277" lon="10.918560162303597"><ele>36.0</ele><time>2026-04-16T10:48:29.999Z</time></trkpt><trkpt lat="43.77278970685454" lon="10.918537462463867"><ele>36.0</ele><time>2026-04-16T10:48:32.999Z</time></trkpt><trkpt lat="43.77271301562386" lon="10.918518920164791"><ele>36.0</ele><time>2026-04-16T10:48:35.999Z</time></trkpt><trkpt lat="43.77263680329261" lon="10.918519930867221"><ele>36.0</ele><time>2026-04-16T10:48:38.999Z</time></trkpt><trkpt lat="43.77255365812534" lon="10.918512336573336"><ele>36.0</ele><time>2026-04-16T10:48:41.999Z</time></trkpt><trkpt lat="43.7724741483818" lon="10.91849110023103"><ele>36.0</ele><time>2026-04-16T10:48:44.999Z</time></trkpt><trkpt lat="43.77239729494" lon="10.91847904427591"><ele>36.0</ele><time>2026-04-16T10:48:47.999Z</time></trkpt><trkpt lat="43.772312017937246" lon="10.91845337811866"><ele>36.0</ele><time>2026-04-16T10:48:50.999Z</time></trkpt><trkpt lat="43.77225112663317" lon="10.91842648662418"><ele>36.0</ele><time>2026-04-16T10:48:52.999Z</time></trkpt><trkpt lat="43.77215856923397" lon="10.91841577520107"><ele>36.0</ele><time>2026-04-16T10:48:55.999Z</time></trkpt><trkpt lat="43.77207485446495" lon="10.918404599225092"><ele>36.0</ele><time>2026-04-16T10:48:58.999Z</time></trkpt><trkpt lat="43.771985614714794" lon="10.918382983947376"><ele>36.0</ele><time>2026-04-16T10:49:01.999Z</time></trkpt><trkpt lat="43.77189573563423" lon="10.91836624986885"><ele>36.0</ele><time>2026-04-16T10:49:04.999Z</time></trkpt><trkpt lat="43.77180942289913" lon="10.91837232692331"><ele>36.0</ele><time>2026-04-16T10:49:07.999Z</time></trkpt><trkpt lat="43.77172599776932" lon="10.918358421021123"><ele>36.0</ele><time>2026-04-16T10:49:10.999Z</time></trkpt><trkpt lat="43.77164269650668" lon="10.918361063894878"><ele>36.0</ele><time>2026-04-16T10:49:13.999Z</time></trkpt><trkpt lat="43.77156190644191" lon="10.91835358704812"><ele>36.0</ele><time>2026-04-16T10:49:16.999Z</time></trkpt><trkpt lat="43.77147534434005" lon="10.918335243318582"><ele>36.0</ele><time>2026-04-16T10:49:19.999Z</time></trkpt><trkpt lat="43.77143998005832" lon="10.918429207034299"><ele>36.0</ele><time>2026-04-16T10:49:22.999Z</time></trkpt><trkpt lat="43.77143169938603" lon="10.91852087179164"><ele>37.00000000000001</ele><time>2026-04-16T10:49:25.999Z</time></trkpt><trkpt lat="43.771421643201215" lon="10.918608022030757"><ele>38.0</ele><time>2026-04-16T10:49:28.999Z</time></trkpt><trkpt lat="43.77139785197596" lon="10.918717256937672"><ele>39.0</ele><time>2026-04-16T10:49:32.999Z</time></trkpt><trkpt lat="43.771349502568455" lon="10.918775687004885"><ele>40.0</ele><time>2026-04-16T10:49:35.999Z</time></trkpt><trkpt lat="43.771275358627385" lon="10.918790764823532"><ele>41.0</ele><time>2026-04-16T10:49:39.999Z</time></trkpt><trkpt lat="43.77120633008819" lon="10.918782353139429"><ele>42.00000000000001</ele><time>2026-04-16T10:49:44.999Z</time></trkpt><trkpt lat="43.77114364002664" lon="10.918769267104194"><ele>43.0</ele><time>2026-04-16T10:49:48.999Z</time></trkpt><trkpt lat="43.77107192795444" lon="10.918824212474936"><ele>43.00000000000001</ele><time>2026-04-16T10:49:51.999Z</time></trkpt><trkpt lat="43.77109367634764" lon="10.918913766952437"><ele>43.0</ele><time>2026-04-16T10:49:54.999Z</time></trkpt><trkpt lat="43.7711469615213" lon="10.918982891961376"><ele>43.0</ele><time>2026-04-16T10:49:58.999Z</time></trkpt><trkpt lat="43.77119882931398" lon="10.91906117492284"><ele>43.0</ele><time>2026-04-16T10:50:02.999Z</time></trkpt><trkpt lat="43.77123694560301" lon="10.919141579521847"><ele>43.0</ele><time>2026-04-16T10:50:05.999Z</time></trkpt><trkpt lat="43.771285566731756" lon="10.919224580980645"><ele>43.00000000000001</ele><time>2026-04-16T10:50:09.999Z</time></trkpt><trkpt lat="43.77132703739371" lon="10.919313500581108"><ele>43.0</ele><time>2026-04-16T10:50:13.999Z</time></trkpt><trkpt lat="43.77137856883776" lon="10.919397345959464"><ele>43.714285714285715</ele><time>2026-04-16T10:50:17.999Z</time></trkpt><trkpt lat="43.7714303356966" lon="10.919485449989704"><ele>44.42857142857143</ele><time>2026-04-16T10:50:21.999Z</time></trkpt><trkpt lat="43.77147812732688" lon="10.919546132030764"><ele>45.14285714285714</ele><time>2026-04-16T10:50:24.999Z</time></trkpt><trkpt lat="43.77152256760636" lon="10.919609806850161"><ele>45.85714285714286</ele><time>2026-04-16T10:50:27.999Z</time></trkpt><trkpt lat="43.771587237688664" lon="10.919682108581075"><ele>46.57142857142857</ele><time>2026-04-16T10:50:31.999Z</time></trkpt><trkpt lat="43.77163919322989" lon="10.919750133059875"><ele>47.285714285714285</ele><time>2026-04-16T10:50:34.999Z</time></trkpt><trkpt lat="43.77169679352594" lon="10.919814216266"><ele>48.0</ele><time>2026-04-16T10:50:37.999Z</time></trkpt><trkpt lat="43.77174455406983" lon="10.919886568532059"><ele>47.99999999999999</ele><time>2026-04-16T10:50:40.999Z</time></trkpt><trkpt lat="43.77178347289963" lon="10.919964361374225"><ele>48.0</ele><time>2026-04-16T10:50:43.999Z</time></trkpt><trkpt lat="43.77183059936056" lon="10.920045378031023"><ele>48.0</ele><time>2026-04-16T10:50:46.999Z</time></trkpt><trkpt lat="43.77187888642419" lon="10.920129371283402"><ele>48.0</ele><time>2026-04-16T10:50:49.999Z</time></trkpt><trkpt lat="43.77193065935503" lon="10.920198405735658"><ele>48.0</ele><time>2026-04-16T10:50:52.999Z</time></trkpt><trkpt lat="43.77198851369292" lon="10.920261295876315"><ele>47.99999999999999</ele><time>2026-04-16T10:50:55.999Z</time></trkpt><trkpt lat="43.77203640205128" lon="10.92034006766051"><ele>48.0</ele><time>2026-04-16T10:50:58.999Z</time></trkpt><trkpt lat="43.77208041322304" lon="10.92041396169941"><ele>48.14285714285714</ele><time>2026-04-16T10:51:01.999Z</time></trkpt><trkpt lat="43.77210681208115" lon="10.920495558056318"><ele>48.285714285714285</ele><time>2026-04-16T10:51:04.998Z</time></trkpt><trkpt lat="43.77213662136644" lon="10.920588666695105"><ele>48.42857142857143</ele><time>2026-04-16T10:51:07.998Z</time></trkpt><trkpt lat="43.77215981566421" lon="10.92067621397237"><ele>48.57142857142857</ele><time>2026-04-16T10:51:10.998Z</time></trkpt><trkpt lat="43.77218844926024" lon="10.9207618341014"><ele>48.714285714285715</ele><time>2026-04-16T10:51:13.998Z</time></trkpt><trkpt lat="43.77221540180614" lon="10.920850110503983"><ele>48.857142857142854</ele><time>2026-04-16T10:51:16.998Z</time></trkpt><trkpt lat="43.772258495660815" lon="10.920939380230292"><ele>49.0</ele><time>2026-04-16T10:51:19.998Z</time></trkpt><trkpt lat="43.772290091578334" lon="10.921023638454296"><ele>49.857142857142854</ele><time>2026-04-16T10:51:22.998Z</time></trkpt><trkpt lat="43.77232847785359" lon="10.921107451285595"><ele>50.714285714285715</ele><time>2026-04-16T10:51:25.998Z</time></trkpt><trkpt lat="43.77236722550134" lon="10.921189002960451"><ele>51.57142857142857</ele><time>2026-04-16T10:51:28.998Z</time></trkpt><trkpt lat="43.77240228032498" lon="10.921266120750811"><ele>52.42857142857143</ele><time>2026-04-16T10:51:31.998Z</time></trkpt><trkpt lat="43.77243490322489" lon="10.92135828659279"><ele>53.285714285714285</ele><time>2026-04-16T10:51:34.998Z</time></trkpt><trkpt lat="43.77246966383059" lon="10.921450849558433"><ele>54.14285714285714</ele><time>2026-04-16T10:51:37.998Z</time></trkpt><trkpt lat="43.7725046255838" lon="10.9215419277931"><ele>55.0</ele><time>2026-04-16T10:51:40.998Z</time></trkpt><trkpt lat="43.772545454168835" lon="10.92163015215798"><ele>54.99999999999999</ele><time>2026-04-16T10:51:43.998Z</time></trkpt><trkpt lat="43.77256994479932" lon="10.921722449983568"><ele>55.0</ele><time>2026-04-16T10:51:46.998Z</time></trkpt><trkpt lat="43.772597097194016" lon="10.921806424033168"><ele>55.0</ele><time>2026-04-16T10:51:49.998Z</time></trkpt><trkpt lat="43.77262501789425" lon="10.921888350120787"><ele>55.0</ele><time>2026-04-16T10:51:52.998Z</time></trkpt><trkpt lat="43.77265475723264" lon="10.921983464566232"><ele>55.0</ele><time>2026-04-16T10:51:55.998Z</time></trkpt><trkpt lat="43.772673971701614" lon="10.922082615410806"><ele>54.99999999999999</ele><time>2026-04-16T10:51:58.998Z</time></trkpt><trkpt lat="43.77270907844547" lon="10.922182846276872"><ele>55.0</ele><time>2026-04-16T10:52:01.998Z</time></trkpt><trkpt lat="43.772728298003756" lon="10.922277967964682"><ele>54.71428571428571</ele><time>2026-04-16T10:52:04.998Z</time></trkpt><trkpt lat="43.77274645072366" lon="10.92237707320713"><ele>54.42857142857143</ele><time>2026-04-16T10:52:07.998Z</time></trkpt><trkpt lat="43.77276211872039" lon="10.922467098032655"><ele>54.14285714285714</ele><time>2026-04-16T10:52:10.998Z</time></trkpt><trkpt lat="43.77279019387679" lon="10.92256185155954"><ele>53.857142857142854</ele><time>2026-04-16T10:52:13.998Z</time></trkpt><trkpt lat="43.772831205163854" lon="10.922655904531403"><ele>53.57142857142857</ele><time>2026-04-16T10:52:16.998Z</time></trkpt><trkpt lat="43.77286280654247" lon="10.92275455967355"><ele>53.285714285714285</ele><time>2026-04-16T10:52:19.998Z</time></trkpt><trkpt lat="43.77288285900725" lon="10.922837463007804"><ele>53.0</ele><time>2026-04-16T10:52:22.998Z</time></trkpt><trkpt lat="43.77290171517809" lon="10.922926639138643"><ele>53.85714285714286</ele><time>2026-04-16T10:52:25.998Z</time></trkpt><trkpt lat="43.7729314594674" lon="10.923017871261843"><ele>54.71428571428571</ele><time>2026-04-16T10:52:28.998Z</time></trkpt><trkpt lat="43.77295426855066" lon="10.923114152404814"><ele>55.57142857142857</ele><time>2026-04-16T10:52:31.998Z</time></trkpt><trkpt lat="43.77297076634567" lon="10.923210542591342"><ele>56.42857142857143</ele><time>2026-04-16T10:52:34.998Z</time></trkpt><trkpt lat="43.77298679311399" lon="10.923300256980594"><ele>57.28571428571429</ele><time>2026-04-16T10:52:37.998Z</time></trkpt><trkpt lat="43.772995627235204" lon="10.923398955161577"><ele>58.14285714285714</ele><time>2026-04-16T10:52:40.998Z</time></trkpt><trkpt lat="43.773015219677596" lon="10.923489514429404"><ele>59.0</ele><time>2026-04-16T10:52:43.998Z</time></trkpt><trkpt lat="43.77303139290762" lon="10.923574188307253"><ele>59.57142857142857</ele><time>2026-04-16T10:52:46.998Z</time></trkpt><trkpt lat="43.77304110670166" lon="10.923690174260317"><ele>60.142857142857146</ele><time>2026-04-16T10:52:50.998Z</time></trkpt><trkpt lat="43.77305787966245" lon="10.92378823314886"><ele>60.714285714285715</ele><time>2026-04-16T10:52:53.998Z</time></trkpt><trkpt lat="43.77304585628594" lon="10.923896185154529"><ele>61.285714285714285</ele><time>2026-04-16T10:52:56.998Z</time></trkpt><trkpt lat="43.77304731982089" lon="10.923989910146554"><ele>61.85714285714286</ele><time>2026-04-16T10:52:59.998Z</time></trkpt><trkpt lat="43.77304708965746" lon="10.92408018728158"><ele>62.42857142857143</ele><time>2026-04-16T10:53:02.998Z</time></trkpt><trkpt lat="43.77303303380468" lon="10.924175672705267"><ele>63.0</ele><time>2026-04-16T10:53:05.998Z</time></trkpt><trkpt lat="43.77302673782618" lon="10.924267615272194"><ele>63.14285714285714</ele><time>2026-04-16T10:53:08.998Z</time></trkpt><trkpt lat="43.77301680764914" lon="10.924356026035122"><ele>63.285714285714285</ele><time>2026-04-16T10:53:11.998Z</time></trkpt><trkpt lat="43.772989875896485" lon="10.924444939375583"><ele>63.42857142857143</ele><time>2026-04-16T10:53:14.998Z</time></trkpt><trkpt lat="43.772984764583846" lon="10.924542346341058"><ele>63.57142857142857</ele><time>2026-04-16T10:53:17.998Z</time></trkpt><trkpt lat="43.77296756824886" lon="10.924653386714677"><ele>63.71428571428571</ele><time>2026-04-16T10:53:21.998Z</time></trkpt><trkpt lat="43.77293673988852" lon="10.924755780265711"><ele>63.857142857142854</ele><time>2026-04-16T10:53:25.998Z</time></trkpt><trkpt lat="43.77292206212205" lon="10.924862445986012"><ele>64.0</ele><time>2026-04-16T10:53:29.998Z</time></trkpt><trkpt lat="43.77289570545123" lon="10.924950440072367"><ele>64.0</ele><time>2026-04-16T10:53:33.998Z</time></trkpt><trkpt lat="43.7728645034366" lon="10.925041183198417"><ele>63.99999999999999</ele><time>2026-04-16T10:53:37.998Z</time></trkpt><trkpt lat="43.77284354080755" lon="10.925141302038197"><ele>64.0</ele><time>2026-04-16T10:53:41.998Z</time></trkpt><trkpt lat="43.77282168382431" lon="10.925228532573023"><ele>64.0</ele><time>2026-04-16T10:53:45.998Z</time></trkpt><trkpt lat="43.77281184766482" lon="10.925336741053489"><ele>63.99999999999999</ele><time>2026-04-16T10:53:49.998Z</time></trkpt><trkpt lat="43.77280400354137" lon="10.92542707980888"><ele>64.0</ele><time>2026-04-16T10:53:53.997Z</time></trkpt><trkpt lat="43.77277691558637" lon="10.925519842271958"><ele>64.0</ele><time>2026-04-16T10:53:57.997Z</time></trkpt><trkpt lat="43.77275482065283" lon="10.925604813718788"><ele>64.14285714285714</ele><time>2026-04-16T10:54:01.997Z</time></trkpt><trkpt lat="43.772725569232605" lon="10.925695479634522"><ele>64.28571428571428</ele><time>2026-04-16T10:54:05.997Z</time></trkpt><trkpt lat="43.77271075576011" lon="10.92579673430937"><ele>64.42857142857143</ele><time>2026-04-16T10:54:09.997Z</time></trkpt><trkpt lat="43.772685504022945" lon="10.925897556853204"><ele>64.57142857142857</ele><time>2026-04-16T10:54:13.997Z</time></trkpt><trkpt lat="43.77265553364023" lon="10.925978622696665"><ele>64.71428571428572</ele><time>2026-04-16T10:54:16.997Z</time></trkpt><trkpt lat="43.772643349981124" lon="10.926082335453907"><ele>64.85714285714286</ele><time>2026-04-16T10:54:19.997Z</time></trkpt><trkpt lat="43.7726291465493" lon="10.926179648030399"><ele>65.0</ele><time>2026-04-16T10:54:22.997Z</time></trkpt><trkpt lat="43.77261866078301" lon="10.926278255461975"><ele>65.14285714285715</ele><time>2026-04-16T10:54:25.997Z</time></trkpt><trkpt lat="43.772615394995015" lon="10.926389490724029"><ele>65.28571428571429</ele><time>2026-04-16T10:54:28.997Z</time></trkpt><trkpt lat="43.77260786101496" lon="10.926481935988837"><ele>65.42857142857143</ele><time>2026-04-16T10:54:31.997Z</time></trkpt><trkpt lat="43.77260666162291" lon="10.926595578908858"><ele>65.57142857142858</ele><time>2026-04-16T10:54:34.997Z</time></trkpt><trkpt lat="43.772608724292205" lon="10.926685309580485"><ele>65.71428571428572</ele><time>2026-04-16T10:54:37.997Z</time></trkpt><trkpt lat="43.77260141570592" lon="10.9267962743639"><ele>65.85714285714286</ele><time>2026-04-16T10:54:40.997Z</time></trkpt><trkpt lat="43.772599629171225" lon="10.926898796183485"><ele>66.0</ele><time>2026-04-16T10:54:43.997Z</time></trkpt><trkpt lat="43.77260701134038" lon="10.927003480022838"><ele>66.0</ele><time>2026-04-16T10:54:46.997Z</time></trkpt><trkpt lat="43.77262860769322" lon="10.927114432158675"><ele>66.0</ele><time>2026-04-16T10:54:49.997Z</time></trkpt><trkpt lat="43.77263806010493" lon="10.92722064676248"><ele>66.0</ele><time>2026-04-16T10:54:52.997Z</time></trkpt><trkpt lat="43.77264731504752" lon="10.927333757944018"><ele>66.0</ele><time>2026-04-16T10:54:55.997Z</time></trkpt><trkpt lat="43.772641586162536" lon="10.92744413025226"><ele>66.0</ele><time>2026-04-16T10:54:58.997Z</time></trkpt><trkpt lat="43.77263993441345" lon="10.92755879820559"><ele>66.0</ele><time>2026-04-16T10:55:01.997Z</time></trkpt><trkpt lat="43.77263813630637" lon="10.927663324998843"><ele>66.5</ele><time>2026-04-16T10:55:04.997Z</time></trkpt><trkpt lat="43.772636231410345" lon="10.927772315960096"><ele>67.0</ele><time>2026-04-16T10:55:07.997Z</time></trkpt><trkpt lat="43.77264079246225" lon="10.927884424576416"><ele>67.5</ele><time>2026-04-16T10:55:10.997Z</time></trkpt><trkpt lat="43.772636011907494" lon="10.927999456234708"><ele>68.0</ele><time>2026-04-16T10:55:13.997Z</time></trkpt><trkpt lat="43.772630598724525" lon="10.928102025964819"><ele>68.5</ele><time>2026-04-16T10:55:16.997Z</time></trkpt><trkpt lat="43.7726151780934" lon="10.928199770565291"><ele>69.0</ele><time>2026-04-16T10:55:19.997Z</time></trkpt><trkpt lat="43.7726001722515" lon="10.928297337819377"><ele>69.0</ele><time>2026-04-16T10:55:22.997Z</time></trkpt><trkpt lat="43.7725575589917" lon="10.928382049432567"><ele>69.0</ele><time>2026-04-16T10:55:25.997Z</time></trkpt><trkpt lat="43.77252306320936" lon="10.928477744092127"><ele>69.0</ele><time>2026-04-16T10:55:28.997Z</time></trkpt><trkpt lat="43.77247479211486" lon="10.928559755164175"><ele>69.0</ele><time>2026-04-16T10:55:31.997Z</time></trkpt><trkpt lat="43.772442825727545" lon="10.928637779943593"><ele>69.0</ele><time>2026-04-16T10:55:34.997Z</time></trkpt><trkpt lat="43.77241923577421" lon="10.928731871933937"><ele>69.0</ele><time>2026-04-16T10:55:37.997Z</time></trkpt><trkpt lat="43.772371220675126" lon="10.92880834642681"><ele>69.0</ele><time>2026-04-16T10:55:40.997Z</time></trkpt><trkpt lat="43.77232448048747" lon="10.928890362231702"><ele>69.83333333333333</ele><time>2026-04-16T10:55:43.997Z</time></trkpt><trkpt lat="43.772272197509224" lon="10.92896470437466"><ele>70.66666666666667</ele><time>2026-04-16T10:55:46.997Z</time></trkpt><trkpt lat="43.77221515422566" lon="10.929056269687475"><ele>71.5</ele><time>2026-04-16T10:55:49.997Z</time></trkpt><trkpt lat="43.772169727430686" lon="10.929116848377886"><ele>72.33333333333334</ele><time>2026-04-16T10:55:51.997Z</time></trkpt><trkpt lat="43.77210711449226" lon="10.929176558860023"><ele>73.16666666666667</ele><time>2026-04-16T10:55:54.997Z</time></trkpt><trkpt lat="43.77205398839379" lon="10.929242652485351"><ele>74.0</ele><time>2026-04-16T10:55:57.997Z</time></trkpt><trkpt lat="43.77198322588145" lon="10.92929953805281"><ele>74.5</ele><time>2026-04-16T10:56:00.997Z</time></trkpt><trkpt lat="43.77191560492357" lon="10.929348193066534"><ele>75.0</ele><time>2026-04-16T10:56:03.997Z</time></trkpt><trkpt lat="43.77184018396544" lon="10.92939724202971"><ele>75.5</ele><time>2026-04-16T10:56:06.997Z</time></trkpt><trkpt lat="43.77176553526568" lon="10.929449052081583"><ele>76.0</ele><time>2026-04-16T10:56:09.997Z</time></trkpt><trkpt lat="43.77170922159795" lon="10.92949726692015"><ele>76.5</ele><time>2026-04-16T10:56:12.997Z</time></trkpt><trkpt lat="43.77164082098685" lon="10.929539793461984"><ele>77.0</ele><time>2026-04-16T10:56:15.997Z</time></trkpt><trkpt lat="43.77157770513743" lon="10.929577837332033"><ele>77.42857142857143</ele><time>2026-04-16T10:56:18.997Z</time></trkpt><trkpt lat="43.77150834356121" lon="10.929615926832705"><ele>77.85714285714286</ele><time>2026-04-16T10:56:21.997Z</time></trkpt><trkpt lat="43.7714294327338" lon="10.92965483959129"><ele>78.28571428571428</ele><time>2026-04-16T10:56:24.997Z</time></trkpt><trkpt lat="43.77135679075167" lon="10.929678009264123"><ele>78.71428571428572</ele><time>2026-04-16T10:56:27.997Z</time></trkpt><trkpt lat="43.771301050022245" lon="10.929745780719289"><ele>79.14285714285714</ele><time>2026-04-16T10:56:30.997Z</time></trkpt><trkpt lat="43.77124308184303" lon="10.929796758076279"><ele>79.57142857142857</ele><time>2026-04-16T10:56:33.997Z</time></trkpt><trkpt lat="43.7711808065849" lon="10.929837743861528"><ele>80.0</ele><time>2026-04-16T10:56:36.997Z</time></trkpt><trkpt lat="43.77110927706386" lon="10.929878977308693"><ele>80.0</ele><time>2026-04-16T10:56:39.996Z</time></trkpt><trkpt lat="43.77104276208862" lon="10.929917843964414"><ele>80.0</ele><time>2026-04-16T10:56:42.996Z</time></trkpt><trkpt lat="43.7709762800536" lon="10.92997038977809"><ele>80.0</ele><time>2026-04-16T10:56:45.996Z</time></trkpt><trkpt lat="43.77091599714501" lon="10.930012982285056"><ele>80.0</ele><time>2026-04-16T10:56:48.996Z</time></trkpt><trkpt lat="43.77086860118034" lon="10.930081056737286"><ele>80.0</ele><time>2026-04-16T10:56:51.996Z</time></trkpt><trkpt lat="43.770822710607945" lon="10.930165517330408"><ele>80.0</ele><time>2026-04-16T10:56:54.996Z</time></trkpt><trkpt lat="43.77077809974979" lon="10.930249613947014"><ele>80.0</ele><time>2026-04-16T10:56:57.996Z</time></trkpt><trkpt lat="43.77074126498507" lon="10.930321192856676"><ele>80.71428571428571</ele><time>2026-04-16T10:57:00.996Z</time></trkpt><trkpt lat="43.77071801150997" lon="10.930405744046487"><ele>81.42857142857143</ele><time>2026-04-16T10:57:03.996Z</time></trkpt><trkpt lat="43.77069128698277" lon="10.930488409592192"><ele>82.14285714285714</ele><time>2026-04-16T10:57:06.996Z</time></trkpt><trkpt lat="43.770676550315926" lon="10.93059127311823"><ele>82.85714285714286</ele><time>2026-04-16T10:57:10.996Z</time></trkpt><trkpt lat="43.770665409488586" lon="10.930690764706164"><ele>83.57142857142857</ele><time>2026-04-16T10:57:14.996Z</time></trkpt><trkpt lat="43.770659953896114" lon="10.930796209116348"><ele>84.28571428571429</ele><time>2026-04-16T10:57:18.996Z</time></trkpt><trkpt lat="43.77064597248102" lon="10.930896793219732"><ele>85.0</ele><time>2026-04-16T10:57:22.996Z</time></trkpt><trkpt lat="43.77064035808891" lon="10.931002121318455"><ele>85.5</ele><time>2026-04-16T10:57:26.996Z</time></trkpt><trkpt lat="43.77064404076042" lon="10.931112643080565"><ele>86.0</ele><time>2026-04-16T10:57:30.996Z</time></trkpt><trkpt lat="43.77063330947404" lon="10.931213355291618"><ele>86.5</ele><time>2026-04-16T10:57:34.996Z</time></trkpt><trkpt lat="43.77063669287669" lon="10.931320827337615"><ele>87.0</ele><time>2026-04-16T10:57:38.996Z</time></trkpt><trkpt lat="43.7706290887754" lon="10.931431788574937"><ele>87.5</ele><time>2026-04-16T10:57:42.996Z</time></trkpt><trkpt lat="43.77061326374168" lon="10.931536509632146"><ele>88.0</ele><time>2026-04-16T10:57:46.996Z</time></trkpt><trkpt lat="43.77060431251604" lon="10.931626299628602"><ele>87.28571428571429</ele><time>2026-04-16T10:57:49.996Z</time></trkpt><trkpt lat="43.770594315824304" lon="10.931728510113647"><ele>86.57142857142857</ele><time>2026-04-16T10:57:53.996Z</time></trkpt><trkpt lat="43.770578332382996" lon="10.9318146918009"><ele>85.85714285714286</ele><time>2026-04-16T10:57:56.996Z</time></trkpt><trkpt lat="43.7705472668448" lon="10.931918082680518"><ele>85.14285714285714</ele><time>2026-04-16T10:58:00.996Z</time></trkpt><trkpt lat="43.77052062317714" lon="10.932004403030971"><ele>84.42857142857143</ele><time>2026-04-16T10:58:03.996Z</time></trkpt><trkpt lat="43.770499412124146" lon="10.932086566682887"><ele>83.71428571428571</ele><time>2026-04-16T10:58:06.996Z</time></trkpt><trkpt lat="43.77046387403177" lon="10.932188662284638"><ele>83.0</ele><time>2026-04-16T10:58:10.996Z</time></trkpt><trkpt lat="43.770430346138" lon="10.932268190307143"><ele>83.0</ele><time>2026-04-16T10:58:13.996Z</time></trkpt><trkpt lat="43.77040345757478" lon="10.932348551762413"><ele>83.0</ele><time>2026-04-16T10:58:16.996Z</time></trkpt><trkpt lat="43.77036084951717" lon="10.932438389337612"><ele>83.0</ele><time>2026-04-16T10:58:19.996Z</time></trkpt><trkpt lat="43.77033344432909" lon="10.932525787262103"><ele>83.0</ele><time>2026-04-16T10:58:22.996Z</time></trkpt><trkpt lat="43.77029915087669" lon="10.932609021471498"><ele>83.0</ele><time>2026-04-16T10:58:25.996Z</time></trkpt><trkpt lat="43.770247642003184" lon="10.932693893852736"><ele>83.0</ele><time>2026-04-16T10:58:28.996Z</time></trkpt><trkpt lat="43.77020405789564" lon="10.932784278658279"><ele>83.0</ele><time>2026-04-16T10:58:31.996Z</time></trkpt><trkpt lat="43.770154423364254" lon="10.932858256718367"><ele>83.16666666666667</ele><time>2026-04-16T10:58:34.996Z</time></trkpt><trkpt lat="43.77010531159838" lon="10.932950531757891"><ele>83.33333333333334</ele><time>2026-04-16T10:58:37.996Z</time></trkpt><trkpt lat="43.77005277639042" lon="10.933039251504947"><ele>83.5</ele><time>2026-04-16T10:58:40.996Z</time></trkpt><trkpt lat="43.77000616574669" lon="10.933130987639954"><ele>83.66666666666667</ele><time>2026-04-16T10:58:43.996Z</time></trkpt><trkpt lat="43.76995307605591" lon="10.933223408642377"><ele>83.83333333333333</ele><time>2026-04-16T10:58:46.996Z</time></trkpt><trkpt lat="43.76990800143135" lon="10.933315856546969"><ele>84.0</ele><time>2026-04-16T10:58:49.996Z</time></trkpt><trkpt lat="43.76988601847706" lon="10.933415215300153"><ele>84.33333333333333</ele><time>2026-04-16T10:58:52.996Z</time></trkpt><trkpt lat="43.769876105104245" lon="10.9335315191814"><ele>84.66666666666667</ele><time>2026-04-16T10:58:55.996Z</time></trkpt><trkpt lat="43.76988953187589" lon="10.933628359949655"><ele>85.0</ele><time>2026-04-16T10:58:58.996Z</time></trkpt><trkpt lat="43.769950041623716" lon="10.93370188387104"><ele>85.33333333333334</ele><time>2026-04-16T10:59:01.996Z</time></trkpt><trkpt lat="43.77001076894874" lon="10.933741689447851"><ele>85.66666666666667</ele><time>2026-04-16T10:59:04.996Z</time></trkpt><trkpt lat="43.770080340820954" lon="10.933773329328394"><ele>86.0</ele><time>2026-04-16T10:59:07.996Z</time></trkpt><trkpt lat="43.77015745822236" lon="10.933787013683872"><ele>84.0</ele><time>2026-04-16T10:59:10.996Z</time></trkpt><trkpt lat="43.77023087305033" lon="10.933813609920497"><ele>82.0</ele><time>2026-04-16T10:59:13.996Z</time></trkpt><trkpt lat="43.77030331445151" lon="10.933849513193387"><ele>80.0</ele><time>2026-04-16T10:59:16.996Z</time></trkpt><trkpt lat="43.77037541381367" lon="10.933886992395918"><ele>78.0</ele><time>2026-04-16T10:59:19.996Z</time></trkpt><trkpt lat="43.77044791061573" lon="10.933940157857396"><ele>76.0</ele><time>2026-04-16T10:59:22.996Z</time></trkpt><trkpt lat="43.77052380798964" lon="10.933980705893504"><ele>74.0</ele><time>2026-04-16T10:59:25.995Z</time></trkpt><trkpt lat="43.770600316929574" lon="10.93400882367008"><ele>74.0</ele><time>2026-04-16T10:59:28.995Z</time></trkpt><trkpt lat="43.77068695862655" lon="10.93404799836114"><ele>74.0</ele><time>2026-04-16T10:59:31.995Z</time></trkpt><trkpt lat="43.770771431468226" lon="10.934069369544819"><ele>74.0</ele><time>2026-04-16T10:59:34.995Z</time></trkpt><trkpt lat="43.77085045843681" lon="10.934093789520729"><ele>74.0</ele><time>2026-04-16T10:59:37.995Z</time></trkpt><trkpt lat="43.77093196350674" lon="10.934110272969967"><ele>74.0</ele><time>2026-04-16T10:59:40.995Z</time></trkpt><trkpt lat="43.77099525659134" lon="10.934117167142468"><ele>74.0</ele><time>2026-04-16T10:59:42.995Z</time></trkpt><trkpt lat="43.77107282497917" lon="10.934153801928803"><ele>72.0</ele><time>2026-04-16T10:59:45.995Z</time></trkpt><trkpt lat="43.77113469576914" lon="10.934171772455255"><ele>70.0</ele><time>2026-04-16T10:59:47.995Z</time></trkpt><trkpt lat="43.77121529604179" lon="10.93420780468993"><ele>68.0</ele><time>2026-04-16T10:59:50.995Z</time></trkpt><trkpt lat="43.77129820835407" lon="10.9342286017343"><ele>66.0</ele><time>2026-04-16T10:59:53.995Z</time></trkpt><trkpt lat="43.77138087912158" lon="10.934257766813271"><ele>64.0</ele><time>2026-04-16T10:59:56.995Z</time></trkpt><trkpt lat="43.771462464890284" lon="10.934285192486401"><ele>62.0</ele><time>2026-04-16T10:59:59.995Z</time></trkpt><trkpt lat="43.7715472230783" lon="10.934304724678514"><ele>62.00000000000001</ele><time>2026-04-16T11:00:02.995Z</time></trkpt><trkpt lat="43.77162652529373" lon="10.934341243872398"><ele>62.0</ele><time>2026-04-16T11:00:05.995Z</time></trkpt><trkpt lat="43.77170770080805" lon="10.93436259341129"><ele>62.0</ele><time>2026-04-16T11:00:08.995Z</time></trkpt><trkpt lat="43.77179594941814" lon="10.934374510829834"><ele>62.0</ele><time>2026-04-16T11:00:11.995Z</time></trkpt><trkpt lat="43.77188342867082" lon="10.934410247913979"><ele>62.00000000000001</ele><time>2026-04-16T11:00:14.995Z</time></trkpt><trkpt lat="43.77195808038865" lon="10.93444063719691"><ele>62.0</ele><time>2026-04-16T11:00:17.995Z</time></trkpt><trkpt lat="43.77203700313745" lon="10.934484680518374"><ele>61.16666666666667</ele><time>2026-04-16T11:00:20.995Z</time></trkpt><trkpt lat="43.77212137524741" lon="10.934490964135705"><ele>60.333333333333336</ele><time>2026-04-16T11:00:23.995Z</time></trkpt><trkpt lat="43.77220042843523" lon="10.934513134997294"><ele>59.5</ele><time>2026-04-16T11:00:26.995Z</time></trkpt><trkpt lat="43.77228190674629" lon="10.934537864090535"><ele>58.66666666666667</ele><time>2026-04-16T11:00:29.995Z</time></trkpt><trkpt lat="43.77236141579511" lon="10.934575823170324"><ele>57.833333333333336</ele><time>2026-04-16T11:00:32.995Z</time></trkpt><trkpt lat="43.77245016811069" lon="10.934606187294579"><ele>57.0</ele><time>2026-04-16T11:00:35.995Z</time></trkpt><trkpt lat="43.77253247538789" lon="10.934630337834827"><ele>57.0</ele><time>2026-04-16T11:00:38.995Z</time></trkpt><trkpt lat="43.77260944250801" lon="10.934653738288423"><ele>57.0</ele><time>2026-04-16T11:00:41.995Z</time></trkpt><trkpt lat="43.772698802142244" lon="10.934675673727863"><ele>57.0</ele><time>2026-04-16T11:00:44.995Z</time></trkpt><trkpt lat="43.772789706239074" lon="10.93471402738448"><ele>57.0</ele><time>2026-04-16T11:00:47.995Z</time></trkpt><trkpt lat="43.7728746869143" lon="10.934766844714414"><ele>57.0</ele><time>2026-04-16T11:00:50.995Z</time></trkpt><trkpt lat="43.772949362662125" lon="10.934790864239195"><ele>57.0</ele><time>2026-04-16T11:00:53.995Z</time></trkpt><trkpt lat="43.77303125075301" lon="10.934807627613006"><ele>55.666666666666664</ele><time>2026-04-16T11:00:56.995Z</time></trkpt><trkpt lat="43.77309549677555" lon="10.934828681152949"><ele>54.33333333333333</ele><time>2026-04-16T11:00:58.995Z</time></trkpt><trkpt lat="43.773167049294685" lon="10.9348674715416"><ele>53.0</ele><time>2026-04-16T11:01:01.995Z</time></trkpt><trkpt lat="43.773240145386275" lon="10.93490405310212"><ele>51.666666666666664</ele><time>2026-04-16T11:01:04.995Z</time></trkpt><trkpt lat="43.77331696182607" lon="10.934913533682598"><ele>50.33333333333333</ele><time>2026-04-16T11:01:07.995Z</time></trkpt><trkpt lat="43.77339710073146" lon="10.934929550496932"><ele>49.0</ele><time>2026-04-16T11:01:10.995Z</time></trkpt><trkpt lat="43.77347817893744" lon="10.93494587604527"><ele>48.99999999999999</ele><time>2026-04-16T11:01:13.995Z</time></trkpt><trkpt lat="43.773554843284046" lon="10.935001115286287"><ele>49.0</ele><time>2026-04-16T11:01:16.995Z</time></trkpt><trkpt lat="43.77363768071745" lon="10.935051939147966"><ele>49.0</ele><time>2026-04-16T11:01:19.995Z</time></trkpt><trkpt lat="43.773709500041825" lon="10.935107452541102"><ele>49.0</ele><time>2026-04-16T11:01:22.995Z</time></trkpt><trkpt lat="43.7737829926146" lon="10.93515448503822"><ele>48.99999999999999</ele><time>2026-04-16T11:01:25.995Z</time></trkpt><trkpt lat="43.77384936109944" lon="10.935197910032226"><ele>49.0</ele><time>2026-04-16T11:01:28.995Z</time></trkpt><trkpt lat="43.773920549301046" lon="10.935245929446419"><ele>48.83333333333333</ele><time>2026-04-16T11:01:31.995Z</time></trkpt><trkpt lat="43.773995119869575" lon="10.935291047533596"><ele>48.666666666666664</ele><time>2026-04-16T11:01:34.995Z</time></trkpt><trkpt lat="43.77404653702869" lon="10.935382938744123"><ele>48.5</ele><time>2026-04-16T11:01:37.995Z</time></trkpt><trkpt lat="43.774114596157425" lon="10.935448279346023"><ele>48.33333333333333</ele><time>2026-04-16T11:01:40.995Z</time></trkpt><trkpt lat="43.774179387053664" lon="10.935523406487992"><ele>48.166666666666664</ele><time>2026-04-16T11:01:43.995Z</time></trkpt><trkpt lat="43.77424393988229" lon="10.935607093618762"><ele>48.0</ele><time>2026-04-16T11:01:46.995Z</time></trkpt><trkpt lat="43.77430491740901" lon="10.935682252636502"><ele>48.0</ele><time>2026-04-16T11:01:49.995Z</time></trkpt><trkpt lat="43.77435311916537" lon="10.935766116771836"><ele>48.0</ele><time>2026-04-16T11:01:52.995Z</time></trkpt><trkpt lat="43.7744038266377" lon="10.935856698639743"><ele>48.0</ele><time>2026-04-16T11:01:55.995Z</time></trkpt><trkpt lat="43.77445063786913" lon="10.935944566178788"><ele>48.0</ele><time>2026-04-16T11:01:58.995Z</time></trkpt><trkpt lat="43.77451634915804" lon="10.93599577944123"><ele>48.0</ele><time>2026-04-16T11:02:01.995Z</time></trkpt><trkpt lat="43.77457469030447" lon="10.936045505259854"><ele>48.0</ele><time>2026-04-16T11:02:04.995Z</time></trkpt><trkpt lat="43.7746143904384" lon="10.93613587402154"><ele>48.285714285714285</ele><time>2026-04-16T11:02:07.995Z</time></trkpt><trkpt lat="43.77467862683812" lon="10.936170592904544"><ele>48.57142857142857</ele><time>2026-04-16T11:02:10.995Z</time></trkpt><trkpt lat="43.774745437524906" lon="10.936097925944136"><ele>48.85714285714286</ele><time>2026-04-16T11:02:13.994Z</time></trkpt><trkpt lat="43.774786560798155" lon="10.936030798558134"><ele>49.14285714285714</ele><time>2026-04-16T11:02:16.994Z</time></trkpt><trkpt lat="43.77484077959598" lon="10.935975254949273"><ele>49.42857142857143</ele><time>2026-04-16T11:02:19.994Z</time></trkpt><trkpt lat="43.774894967572116" lon="10.935920108254802"><ele>49.714285714285715</ele><time>2026-04-16T11:02:22.994Z</time></trkpt><trkpt lat="43.77494613396243" lon="10.935842197614127"><ele>50.0</ele><time>2026-04-16T11:02:25.994Z</time></trkpt><trkpt lat="43.77500606358775" lon="10.935788417370553"><ele>50.00000000000001</ele><time>2026-04-16T11:02:28.994Z</time></trkpt><trkpt lat="43.7750673376555" lon="10.93573889797824"><ele>50.0</ele><time>2026-04-16T11:02:31.994Z</time></trkpt><trkpt lat="43.77512368990998" lon="10.935688440427365"><ele>50.0</ele><time>2026-04-16T11:02:34.994Z</time></trkpt><trkpt lat="43.775183278156206" lon="10.935652839311507"><ele>50.0</ele><time>2026-04-16T11:02:37.994Z</time></trkpt><trkpt lat="43.77524166132404" lon="10.935615444074624"><ele>50.0</ele><time>2026-04-16T11:02:40.994Z</time></trkpt><trkpt lat="43.77529959099456" lon="10.935549216338103"><ele>50.00000000000001</ele><time>2026-04-16T11:02:43.994Z</time></trkpt><trkpt lat="43.775355566168905" lon="10.93550340034881"><ele>50.0</ele><time>2026-04-16T11:02:46.994Z</time></trkpt><trkpt lat="43.775436741640824" lon="10.93545998630893"><ele>50.714285714285715</ele><time>2026-04-16T11:02:50.994Z</time></trkpt><trkpt lat="43.775500814257875" lon="10.93540902077057"><ele>51.42857142857143</ele><time>2026-04-16T11:02:53.994Z</time></trkpt><trkpt lat="43.775567023492336" lon="10.935389538575333"><ele>52.14285714285714</ele><time>2026-04-16T11:02:56.994Z</time></trkpt><trkpt lat="43.77562777533422" lon="10.935331328510296"><ele>52.85714285714286</ele><time>2026-04-16T11:02:59.994Z</time></trkpt><trkpt lat="43.775696195312044" lon="10.93527415043646"><ele>53.57142857142857</ele><time>2026-04-16T11:03:03.994Z</time></trkpt><trkpt lat="43.775748603683326" lon="10.935208427467838"><ele>54.285714285714285</ele><time>2026-04-16T11:03:06.994Z</time></trkpt><trkpt lat="43.77581166951805" lon="10.935193405367555"><ele>55.0</ele><time>2026-04-16T11:03:09.994Z</time></trkpt><trkpt lat="43.77587853992023" lon="10.935192388607048"><ele>54.99999999999999</ele><time>2026-04-16T11:03:13.994Z</time></trkpt><trkpt lat="43.77594274373788" lon="10.935228324403502"><ele>55.0</ele><time>2026-04-16T11:03:17.994Z</time></trkpt><trkpt lat="43.776010050588404" lon="10.93527216089224"><ele>55.0</ele><time>2026-04-16T11:03:21.994Z</time></trkpt><trkpt lat="43.77606927250292" lon="10.9353162952044"><ele>55.0</ele><time>2026-04-16T11:03:25.994Z</time></trkpt><trkpt lat="43.7761216229943" lon="10.935382596610964"><ele>55.0</ele><time>2026-04-16T11:03:29.994Z</time></trkpt><trkpt lat="43.77617386491213" lon="10.935433818357081"><ele>54.99999999999999</ele><time>2026-04-16T11:03:37.994Z</time></trkpt><trkpt lat="43.776237397088885" lon="10.935397588450618"><ele>55.0</ele><time>2026-04-16T11:03:45.994Z</time></trkpt><trkpt lat="43.776314314517634" lon="10.935371494145667"><ele>56.42857142857142</ele><time>2026-04-16T11:03:56.994Z</time></trkpt><trkpt lat="43.776379172003345" lon="10.935325869513166"><ele>57.85714285714286</ele><time>2026-04-16T11:04:06.994Z</time></trkpt><trkpt lat="43.77644862012082" lon="10.935291772047533"><ele>59.28571428571429</ele><time>2026-04-16T11:04:12.994Z</time></trkpt><trkpt lat="43.776512051353464" lon="10.935260698385187"><ele>60.714285714285715</ele><time>2026-04-16T11:04:16.994Z</time></trkpt><trkpt lat="43.77655551336417" lon="10.935185571317534"><ele>62.142857142857146</ele><time>2026-04-16T11:04:20.994Z</time></trkpt><trkpt lat="43.77661039043508" lon="10.935134041787204"><ele>63.57142857142858</ele><time>2026-04-16T11:04:25.994Z</time></trkpt><trkpt lat="43.77666832230554" lon="10.935096198556701"><ele>65.0</ele><time>2026-04-16T11:04:29.994Z</time></trkpt><trkpt lat="43.776737181695054" lon="10.935092271408925"><ele>65.00000000000001</ele><time>2026-04-16T11:04:32.994Z</time></trkpt><trkpt lat="43.77681839175272" lon="10.935056240320682"><ele>65.0</ele><time>2026-04-16T11:04:35.994Z</time></trkpt><trkpt lat="43.77687318672037" lon="10.935003574990644"><ele>65.0</ele><time>2026-04-16T11:04:37.994Z</time></trkpt><trkpt lat="43.77694005265068" lon="10.934932016924371"><ele>65.0</ele><time>2026-04-16T11:04:40.994Z</time></trkpt><trkpt lat="43.77699038451801" lon="10.934866815163533"><ele>65.0</ele><time>2026-04-16T11:04:43.994Z</time></trkpt><trkpt lat="43.77703004411095" lon="10.93478304770056"><ele>65.00000000000001</ele><time>2026-04-16T11:04:46.994Z</time></trkpt><trkpt lat="43.77707211911781" lon="10.934709430581732"><ele>65.0</ele><time>2026-04-16T11:04:49.994Z</time></trkpt><trkpt lat="43.777109995226965" lon="10.934620146467617"><ele>65.28571428571429</ele><time>2026-04-16T11:04:52.994Z</time></trkpt><trkpt lat="43.777142773182604" lon="10.93452652776483"><ele>65.57142857142857</ele><time>2026-04-16T11:04:55.994Z</time></trkpt><trkpt lat="43.77717731217327" lon="10.934441050764491"><ele>65.85714285714286</ele><time>2026-04-16T11:04:58.994Z</time></trkpt><trkpt lat="43.777212499167796" lon="10.934353475997609"><ele>66.14285714285714</ele><time>2026-04-16T11:05:01.993Z</time></trkpt><trkpt lat="43.77725435702584" lon="10.934266474555326"><ele>66.42857142857143</ele><time>2026-04-16T11:05:04.993Z</time></trkpt><trkpt lat="43.77729838255583" lon="10.934179591412642"><ele>66.71428571428572</ele><time>2026-04-16T11:05:07.993Z</time></trkpt><trkpt lat="43.77733968250941" lon="10.934091557753367"><ele>67.0</ele><time>2026-04-16T11:05:10.993Z</time></trkpt><trkpt lat="43.77738092725462" lon="10.933999845489213"><ele>65.83333333333333</ele><time>2026-04-16T11:05:13.993Z</time></trkpt><trkpt lat="43.77741857081891" lon="10.933900613508486"><ele>64.66666666666666</ele><time>2026-04-16T11:05:16.993Z</time></trkpt><trkpt lat="43.777437175916354" lon="10.933777613597886"><ele>63.5</ele><time>2026-04-16T11:05:19.993Z</time></trkpt><trkpt lat="43.77742753720941" lon="10.933666744136314"><ele>62.33333333333333</ele><time>2026-04-16T11:05:22.993Z</time></trkpt><trkpt lat="43.777385802536635" lon="10.93356972904873"><ele>61.166666666666664</ele><time>2026-04-16T11:05:25.993Z</time></trkpt><trkpt lat="43.77735256241507" lon="10.933467647168698"><ele>60.0</ele><time>2026-04-16T11:05:28.993Z</time></trkpt><trkpt lat="43.777318748065795" lon="10.933374192750504"><ele>59.5</ele><time>2026-04-16T11:05:31.993Z</time></trkpt><trkpt lat="43.777290039865434" lon="10.933275853028206"><ele>59.0</ele><time>2026-04-16T11:05:34.993Z</time></trkpt><trkpt lat="43.777274595914726" lon="10.933190648649532"><ele>58.5</ele><time>2026-04-16T11:05:36.993Z</time></trkpt><trkpt lat="43.77723951087145" lon="10.933080002260494"><ele>58.0</ele><time>2026-04-16T11:05:39.993Z</time></trkpt><trkpt lat="43.777202998331965" lon="10.932977385612768"><ele>57.5</ele><time>2026-04-16T11:05:42.993Z</time></trkpt><trkpt lat="43.777184676011" lon="10.932859342001594"><ele>57.0</ele><time>2026-04-16T11:05:46.003Z</time></trkpt><trkpt lat="43.777151608890385" lon="10.93274078081127"><ele>57.0</ele><time>2026-04-16T11:05:49.003Z</time></trkpt><trkpt lat="43.77713349764287" lon="10.932653169444393"><ele>57.0</ele><time>2026-04-16T11:05:51.003Z</time></trkpt><trkpt lat="43.777085302075456" lon="10.932542703564813"><ele>57.0</ele><time>2026-04-16T11:05:54.003Z</time></trkpt><trkpt lat="43.77705115273578" lon="10.93242195552681"><ele>57.0</ele><time>2026-04-16T11:05:57.003Z</time></trkpt><trkpt lat="43.777035978431826" lon="10.932336751307572"><ele>57.0</ele><time>2026-04-16T11:05:59.003Z</time></trkpt><trkpt lat="43.77699540680194" lon="10.932230561490856"><ele>57.0</ele><time>2026-04-16T11:06:02.003Z</time></trkpt><trkpt lat="43.776971343410246" lon="10.932143304424303"><ele>56.666666666666664</ele><time>2026-04-16T11:06:04.003Z</time></trkpt><trkpt lat="43.77695636282369" lon="10.932056690380191"><ele>56.33333333333333</ele><time>2026-04-16T11:06:06.003Z</time></trkpt><trkpt lat="43.77692382130265" lon="10.931942648617156"><ele>56.0</ele><time>2026-04-16T11:06:09.002Z</time></trkpt><trkpt lat="43.77689970055904" lon="10.931858222014181"><ele>55.666666666666664</ele><time>2026-04-16T11:06:11.002Z</time></trkpt><trkpt lat="43.77687958071431" lon="10.931773550236887"><ele>55.33333333333333</ele><time>2026-04-16T11:06:13.002Z</time></trkpt><trkpt lat="43.77684419192819" lon="10.93166950954702"><ele>55.0</ele><time>2026-04-16T11:06:16.002Z</time></trkpt><trkpt lat="43.77680384516562" lon="10.931550366552269"><ele>54.666666666666664</ele><time>2026-04-16T11:06:19.002Z</time></trkpt><trkpt lat="43.77676377117017" lon="10.931439089155978"><ele>54.33333333333333</ele><time>2026-04-16T11:06:22.002Z</time></trkpt><trkpt lat="43.77674028865633" lon="10.931312995143166"><ele>54.0</ele><time>2026-04-16T11:06:25.002Z</time></trkpt><trkpt lat="43.77670802479402" lon="10.931234447293143"><ele>53.66666666666667</ele><time>2026-04-16T11:06:27.002Z</time></trkpt><trkpt lat="43.77667991858133" lon="10.931114769233412"><ele>53.333333333333336</ele><time>2026-04-16T11:06:30.002Z</time></trkpt><trkpt lat="43.77664371480186" lon="10.931004550426252"><ele>53.0</ele><time>2026-04-16T11:06:33.003Z</time></trkpt><trkpt lat="43.77660331578802" lon="10.930896449204889"><ele>53.0</ele><time>2026-04-16T11:06:36.002Z</time></trkpt><trkpt lat="43.776587826050225" lon="10.930805316042076"><ele>53.0</ele><time>2026-04-16T11:06:38.003Z</time></trkpt><trkpt lat="43.77657371798531" lon="10.930717335911728"><ele>53.0</ele><time>2026-04-16T11:06:40.002Z</time></trkpt><trkpt lat="43.77656770259509" lon="10.930629929509458"><ele>53.0</ele><time>2026-04-16T11:06:42.002Z</time></trkpt><trkpt lat="43.77657264071529" lon="10.930541897907428"><ele>53.0</ele><time>2026-04-16T11:06:44.002Z</time></trkpt><trkpt lat="43.776576086647175" lon="10.930445433377026"><ele>53.0</ele><time>2026-04-16T11:06:46.003Z</time></trkpt><trkpt lat="43.77653901580591" lon="10.930324922972007"><ele>53.0</ele><time>2026-04-16T11:06:49.003Z</time></trkpt><trkpt lat="43.77652164747443" lon="10.930208421511852"><ele>53.00000000000001</ele><time>2026-04-16T11:06:52.003Z</time></trkpt><trkpt lat="43.776487005202426" lon="10.930101812220709"><ele>53.0</ele><time>2026-04-16T11:06:55.003Z</time></trkpt><trkpt lat="43.7764652870851" lon="10.929978701407792"><ele>53.0</ele><time>2026-04-16T11:06:58.003Z</time></trkpt><trkpt lat="43.7764473113861" lon="10.929861838927685"><ele>53.0</ele><time>2026-04-16T11:07:01.002Z</time></trkpt><trkpt lat="43.77642223838933" lon="10.929776976819216"><ele>53.00000000000001</ele><time>2026-04-16T11:07:03.002Z</time></trkpt><trkpt lat="43.77638829911608" lon="10.929681805414063"><ele>53.0</ele><time>2026-04-16T11:07:06.002Z</time></trkpt><trkpt lat="43.776369462389845" lon="10.929570111509866"><ele>52.333333333333336</ele><time>2026-04-16T11:07:09.002Z</time></trkpt><trkpt lat="43.77637361149804" lon="10.929447608735925"><ele>51.66666666666667</ele><time>2026-04-16T11:07:12.002Z</time></trkpt><trkpt lat="43.776357085318544" lon="10.929342375813201"><ele>51.0</ele><time>2026-04-16T11:07:15.002Z</time></trkpt><trkpt lat="43.77636918547711" lon="10.929213671213518"><ele>50.33333333333333</ele><time>2026-04-16T11:07:18.002Z</time></trkpt><trkpt lat="43.77637196844088" lon="10.929092818780354"><ele>49.666666666666664</ele><time>2026-04-16T11:07:21.002Z</time></trkpt><trkpt lat="43.776376984271245" lon="10.928975457501586"><ele>49.0</ele><time>2026-04-16T11:07:24.002Z</time></trkpt><trkpt lat="43.77638492109735" lon="10.928883239032082"><ele>48.49999999999999</ele><time>2026-04-16T11:07:26.002Z</time></trkpt><trkpt lat="43.776375549185424" lon="10.928751786096718"><ele>48.0</ele><time>2026-04-16T11:07:29.002Z</time></trkpt><trkpt lat="43.77638132307125" lon="10.928622991602861"><ele>47.5</ele><time>2026-04-16T11:07:32.002Z</time></trkpt><trkpt lat="43.77638516577303" lon="10.928535477475446"><ele>47.0</ele><time>2026-04-16T11:07:34.002Z</time></trkpt><trkpt lat="43.77637164621792" lon="10.92843418637381"><ele>46.5</ele><time>2026-04-16T11:07:36.002Z</time></trkpt><trkpt lat="43.77635751564877" lon="10.928331544457814"><ele>46.0</ele><time>2026-04-16T11:07:38.002Z</time></trkpt><trkpt lat="43.77634400341636" lon="10.928238086290087"><ele>45.42857142857143</ele><time>2026-04-16T11:07:40.002Z</time></trkpt><trkpt lat="43.77633110668486" lon="10.928137353961441"><ele>44.857142857142854</ele><time>2026-04-16T11:07:42.002Z</time></trkpt><trkpt lat="43.776314592383414" lon="10.928048934975696"><ele>44.285714285714285</ele><time>2026-04-16T11:07:44.002Z</time></trkpt><trkpt lat="43.776301453163576" lon="10.927963079807606"><ele>43.714285714285715</ele><time>2026-04-16T11:07:46.002Z</time></trkpt><trkpt lat="43.776268130557966" lon="10.92787236848686"><ele>43.14285714285714</ele><time>2026-04-16T11:07:48.002Z</time></trkpt><trkpt lat="43.77621053855076" lon="10.927824668440067"><ele>42.57142857142857</ele><time>2026-04-16T11:07:50.002Z</time></trkpt><trkpt lat="43.776123913425735" lon="10.927810865929352"><ele>42.0</ele><time>2026-04-16T11:07:53.002Z</time></trkpt><trkpt lat="43.776057577522266" lon="10.9277208135163"><ele>42.0</ele><time>2026-04-16T11:07:56.002Z</time></trkpt><trkpt lat="43.77602720259357" lon="10.927606964690142"><ele>42.0</ele><time>2026-04-16T11:07:59.002Z</time></trkpt><trkpt lat="43.7760139583493" lon="10.927489895427414"><ele>42.0</ele><time>2026-04-16T11:08:02.002Z</time></trkpt><trkpt lat="43.775989050803446" lon="10.927405305639986"><ele>42.0</ele><time>2026-04-16T11:08:05.002Z</time></trkpt><trkpt lat="43.77597406151905" lon="10.927297752846224"><ele>42.0</ele><time>2026-04-16T11:08:08.002Z</time></trkpt><trkpt lat="43.77596313790628" lon="10.927180332475226"><ele>42.0</ele><time>2026-04-16T11:08:11.002Z</time></trkpt><trkpt lat="43.775944917913584" lon="10.927068482918486"><ele>41.857142857142854</ele><time>2026-04-16T11:08:14.002Z</time></trkpt><trkpt lat="43.77592574636103" lon="10.926966997613436"><ele>41.714285714285715</ele><time>2026-04-16T11:08:17.002Z</time></trkpt><trkpt lat="43.77599069798252" lon="10.926901936902583"><ele>41.57142857142857</ele><time>2026-04-16T11:08:20.002Z</time></trkpt><trkpt lat="43.776064893682175" lon="10.926867029305624"><ele>41.42857142857143</ele><time>2026-04-16T11:08:23.002Z</time></trkpt><trkpt lat="43.776136733599" lon="10.926833535567436"><ele>41.285714285714285</ele><time>2026-04-16T11:08:26.002Z</time></trkpt><trkpt lat="43.77619949587241" lon="10.926804363513005"><ele>41.14285714285714</ele><time>2026-04-16T11:08:29.002Z</time></trkpt><trkpt lat="43.776271332660116" lon="10.926799444507225"><ele>41.0</ele><time>2026-04-16T11:08:32.002Z</time></trkpt><trkpt lat="43.77635220118139" lon="10.92682677026758"><ele>40.857142857142854</ele><time>2026-04-16T11:08:35.002Z</time></trkpt><trkpt lat="43.77642400931267" lon="10.926808772160486"><ele>40.714285714285715</ele><time>2026-04-16T11:08:38.002Z</time></trkpt><trkpt lat="43.77650214704603" lon="10.926802135753489"><ele>40.57142857142857</ele><time>2026-04-16T11:08:41.003Z</time></trkpt><trkpt lat="43.7765797475073" lon="10.9268374570448"><ele>40.42857142857143</ele><time>2026-04-16T11:08:44.003Z</time></trkpt><trkpt lat="43.776652656847794" lon="10.926874849420741"><ele>40.285714285714285</ele><time>2026-04-16T11:08:47.002Z</time></trkpt><trkpt lat="43.776709937199605" lon="10.926924345950924"><ele>40.14285714285714</ele><time>2026-04-16T11:08:50.002Z</time></trkpt><trkpt lat="43.776772015612885" lon="10.926955270335021"><ele>40.0</ele><time>2026-04-16T11:08:53.002Z</time></trkpt><trkpt lat="43.77684969968096" lon="10.926978590540275"><ele>40.285714285714285</ele><time>2026-04-16T11:08:56.002Z</time></trkpt><trkpt lat="43.77691920722851" lon="10.927012092811955"><ele>40.57142857142857</ele><time>2026-04-16T11:08:59.002Z</time></trkpt><trkpt lat="43.77699233600174" lon="10.927038250283472"><ele>40.85714285714286</ele><time>2026-04-16T11:09:02.002Z</time></trkpt><trkpt lat="43.77706380654678" lon="10.927053219709352"><ele>41.14285714285714</ele><time>2026-04-16T11:09:05.002Z</time></trkpt><trkpt lat="43.777139176470214" lon="10.92706208240629"><ele>41.42857142857143</ele><time>2026-04-16T11:09:08.002Z</time></trkpt><trkpt lat="43.77721531076042" lon="10.927080749129239"><ele>41.714285714285715</ele><time>2026-04-16T11:09:11.002Z</time></trkpt><trkpt lat="43.777286514591715" lon="10.927099223089504"><ele>42.0</ele><time>2026-04-16T11:09:14.002Z</time></trkpt><trkpt lat="43.77735984123959" lon="10.927111527502602"><ele>42.0</ele><time>2026-04-16T11:09:17.002Z</time></trkpt><trkpt lat="43.77743334583515" lon="10.927152766864058"><ele>42.0</ele><time>2026-04-16T11:09:20.002Z</time></trkpt><trkpt lat="43.77751015028302" lon="10.927184807332646"><ele>42.0</ele><time>2026-04-16T11:09:23.002Z</time></trkpt><trkpt lat="43.77759103833614" lon="10.927194029263047"><ele>42.0</ele><time>2026-04-16T11:09:26.002Z</time></trkpt><trkpt lat="43.777682763986604" lon="10.927216989287091"><ele>42.0</ele><time>2026-04-16T11:09:29.002Z</time></trkpt><trkpt lat="43.77776485179843" lon="10.927210000756864"><ele>42.0</ele><time>2026-04-16T11:09:32.002Z</time></trkpt><trkpt lat="43.777851310275665" lon="10.92723107947963"><ele>42.0</ele><time>2026-04-16T11:09:35.002Z</time></trkpt><trkpt lat="43.77792866308131" lon="10.927255005786193"><ele>42.0</ele><time>2026-04-16T11:09:38.002Z</time></trkpt><trkpt lat="43.77801093247342" lon="10.927281645921754"><ele>42.0</ele><time>2026-04-16T11:09:41.002Z</time></trkpt><trkpt lat="43.77809022743233" lon="10.927289602135168"><ele>42.0</ele><time>2026-04-16T11:09:44.002Z</time></trkpt><trkpt lat="43.77816222766706" lon="10.927318926023766"><ele>42.0</ele><time>2026-04-16T11:09:47.002Z</time></trkpt><trkpt lat="43.778238041877934" lon="10.927326549202936"><ele>42.0</ele><time>2026-04-16T11:09:50.002Z</time></trkpt><trkpt lat="43.77829999034589" lon="10.927346860097852"><ele>42.0</ele><time>2026-04-16T11:09:52.002Z</time></trkpt><trkpt lat="43.77837950031669" lon="10.927370452802398"><ele>42.0</ele><time>2026-04-16T11:09:55.002Z</time></trkpt><trkpt lat="43.7784549895198" lon="10.927374417048263"><ele>42.0</ele><time>2026-04-16T11:09:58.002Z</time></trkpt><trkpt lat="43.77853677074721" lon="10.92739142424215"><ele>42.0</ele><time>2026-04-16T11:10:01.002Z</time></trkpt><trkpt lat="43.77862706106143" lon="10.92742218918463"><ele>42.0</ele><time>2026-04-16T11:10:04.002Z</time></trkpt><trkpt lat="43.77869990161241" lon="10.927453462315116"><ele>42.0</ele><time>2026-04-16T11:10:07.002Z</time></trkpt><trkpt lat="43.77878314631475" lon="10.927501628929273"><ele>42.166666666666664</ele><time>2026-04-16T11:10:10.002Z</time></trkpt><trkpt lat="43.77886075184892" lon="10.927537325075141"><ele>42.333333333333336</ele><time>2026-04-16T11:10:13.002Z</time></trkpt><trkpt lat="43.778940842041884" lon="10.92758759255255"><ele>42.5</ele><time>2026-04-16T11:10:16.002Z</time></trkpt><trkpt lat="43.77901511370747" lon="10.927633788885643"><ele>42.66666666666667</ele><time>2026-04-16T11:10:19.002Z</time></trkpt><trkpt lat="43.779089602591895" lon="10.927690965424953"><ele>42.833333333333336</ele><time>2026-04-16T11:10:22.002Z</time></trkpt><trkpt lat="43.77915477606893" lon="10.927757957178832"><ele>43.0</ele><time>2026-04-16T11:10:25.002Z</time></trkpt><trkpt lat="43.779233265363764" lon="10.927794225092683"><ele>43.16666666666667</ele><time>2026-04-16T11:10:28.002Z</time></trkpt><trkpt lat="43.77931223527536" lon="10.927853407011142"><ele>43.333333333333336</ele><time>2026-04-16T11:10:31.002Z</time></trkpt><trkpt lat="43.779385485855805" lon="10.927868961939485"><ele>43.5</ele><time>2026-04-16T11:10:34.002Z</time></trkpt><trkpt lat="43.77945970063703" lon="10.927925350729684"><ele>43.666666666666664</ele><time>2026-04-16T11:10:37.002Z</time></trkpt><trkpt lat="43.77952240899727" lon="10.927988342969792"><ele>43.83333333333333</ele><time>2026-04-16T11:10:40.002Z</time></trkpt><trkpt lat="43.77959762391395" lon="10.928020262849945"><ele>44.0</ele><time>2026-04-16T11:10:43.002Z</time></trkpt><trkpt lat="43.77967101743637" lon="10.928073886357566"><ele>44.0</ele><time>2026-04-16T11:10:46.003Z</time></trkpt><trkpt lat="43.77974070646128" lon="10.92812915340013"><ele>44.0</ele><time>2026-04-16T11:10:49.003Z</time></trkpt><trkpt lat="43.7798145091592" lon="10.928188183081364"><ele>44.0</ele><time>2026-04-16T11:10:52.003Z</time></trkpt><trkpt lat="43.77988094790841" lon="10.92824679107782"><ele>44.0</ele><time>2026-04-16T11:10:55.003Z</time></trkpt><trkpt lat="43.779951207286054" lon="10.928305860087123"><ele>44.0</ele><time>2026-04-16T11:10:58.003Z</time></trkpt><trkpt lat="43.780011828292" lon="10.928362480592025"><ele>44.0</ele><time>2026-04-16T11:11:01.003Z</time></trkpt><trkpt lat="43.78006838577708" lon="10.928412154013191"><ele>43.85714285714286</ele><time>2026-04-16T11:11:04.003Z</time></trkpt><trkpt lat="43.78011983887651" lon="10.928474193451335"><ele>43.714285714285715</ele><time>2026-04-16T11:11:07.003Z</time></trkpt><trkpt lat="43.78017722352617" lon="10.92853717495044"><ele>43.57142857142857</ele><time>2026-04-16T11:11:10.003Z</time></trkpt><trkpt lat="43.78024135784335" lon="10.928580862668152"><ele>43.42857142857143</ele><time>2026-04-16T11:11:13.003Z</time></trkpt><trkpt lat="43.780303673471835" lon="10.928632228744116"><ele>43.285714285714285</ele><time>2026-04-16T11:11:16.003Z</time></trkpt><trkpt lat="43.78036401689272" lon="10.928695556995494"><ele>43.142857142857146</ele><time>2026-04-16T11:11:19.003Z</time></trkpt><trkpt lat="43.78042553383439" lon="10.928727874790223"><ele>43.0</ele><time>2026-04-16T11:11:22.003Z</time></trkpt><trkpt lat="43.780487975719424" lon="10.928765987218169"><ele>43.333333333333336</ele><time>2026-04-16T11:11:25.003Z</time></trkpt><trkpt lat="43.78054287172746" lon="10.928832762073753"><ele>43.66666666666667</ele><time>2026-04-16T11:11:28.003Z</time></trkpt><trkpt lat="43.780614412524876" lon="10.928899681423594"><ele>44.0</ele><time>2026-04-16T11:11:32.003Z</time></trkpt><trkpt lat="43.78068748655873" lon="10.928929037818039"><ele>44.333333333333336</ele><time>2026-04-16T11:11:36.003Z</time></trkpt><trkpt lat="43.78075504609937" lon="10.928946785665385"><ele>44.666666666666664</ele><time>2026-04-16T11:11:39.003Z</time></trkpt><trkpt lat="43.78083624838047" lon="10.928962663954696"><ele>45.0</ele><time>2026-04-16T11:11:43.003Z</time></trkpt><trkpt lat="43.780920792264716" lon="10.928961405900958"><ele>45.0</ele><time>2026-04-16T11:11:47.003Z</time></trkpt><trkpt lat="43.78098712023476" lon="10.928977755476385"><ele>45.0</ele><time>2026-04-16T11:11:50.003Z</time></trkpt><trkpt lat="43.78105258277205" lon="10.92900113551498"><ele>45.0</ele><time>2026-04-16T11:11:53.003Z</time></trkpt><trkpt lat="43.781119809167414" lon="10.929016260440706"><ele>45.0</ele><time>2026-04-16T11:11:56.003Z</time></trkpt><trkpt lat="43.78118525887635" lon="10.92901363327432"><ele>45.0</ele><time>2026-04-16T11:11:59.003Z</time></trkpt><trkpt lat="43.7812487940631" lon="10.929030898083642"><ele>45.0</ele><time>2026-04-16T11:12:02.003Z</time></trkpt><trkpt lat="43.78131291894846" lon="10.929068454428586"><ele>45.0</ele><time>2026-04-16T11:12:05.003Z</time></trkpt><trkpt lat="43.781367454041586" lon="10.929127689922248"><ele>45.14285714285714</ele><time>2026-04-16T11:12:08.003Z</time></trkpt><trkpt lat="43.78142145543003" lon="10.92921493671445"><ele>45.28571428571429</ele><time>2026-04-16T11:12:11.003Z</time></trkpt><trkpt lat="43.781460357559" lon="10.929305951977513"><ele>45.42857142857143</ele><time>2026-04-16T11:12:14.003Z</time></trkpt><trkpt lat="43.781496584354834" lon="10.929390466690073"><ele>45.57142857142857</ele><time>2026-04-16T11:12:17.003Z</time></trkpt><trkpt lat="43.781521074438636" lon="10.929487303079705"><ele>45.71428571428571</ele><time>2026-04-16T11:12:20.003Z</time></trkpt><trkpt lat="43.78156563097614" lon="10.92956609392099"><ele>45.85714285714286</ele><time>2026-04-16T11:12:23.003Z</time></trkpt><trkpt lat="43.78161698586611" lon="10.929635536144298"><ele>46.0</ele><time>2026-04-16T11:12:26.003Z</time></trkpt><trkpt lat="43.781677142779145" lon="10.929683122771484"><ele>45.85714285714286</ele><time>2026-04-16T11:12:29.003Z</time></trkpt><trkpt lat="43.781736757874334" lon="10.929733902727833"><ele>45.71428571428571</ele><time>2026-04-16T11:12:32.002Z</time></trkpt><trkpt lat="43.7817918555042" lon="10.929792979887749"><ele>45.57142857142857</ele><time>2026-04-16T11:12:35.002Z</time></trkpt><trkpt lat="43.781835812597926" lon="10.92986586096829"><ele>45.42857142857143</ele><time>2026-04-16T11:12:38.002Z</time></trkpt><trkpt lat="43.78188897121646" lon="10.929915281539904"><ele>45.28571428571429</ele><time>2026-04-16T11:12:41.002Z</time></trkpt><trkpt lat="43.78193579672194" lon="10.929976852981198"><ele>45.14285714285714</ele><time>2026-04-16T11:12:44.002Z</time></trkpt><trkpt lat="43.781978100709416" lon="10.93005439147935"><ele>45.0</ele><time>2026-04-16T11:12:47.002Z</time></trkpt><trkpt lat="43.78202063715395" lon="10.930157842093942"><ele>45.0</ele><time>2026-04-16T11:12:51.003Z</time></trkpt><trkpt lat="43.78203841841002" lon="10.930254779524113"><ele>45.0</ele><time>2026-04-16T11:12:54.003Z</time></trkpt><trkpt lat="43.78206946421146" lon="10.930338081106036"><ele>45.0</ele><time>2026-04-16T11:12:57.003Z</time></trkpt><trkpt lat="43.78208522757874" lon="10.930433099939654"><ele>45.0</ele><time>2026-04-16T11:13:00.002Z</time></trkpt><trkpt lat="43.78209283075779" lon="10.930542196643003"><ele>45.0</ele><time>2026-04-16T11:13:03.003Z</time></trkpt><trkpt lat="43.78211346494867" lon="10.930641095060166"><ele>45.0</ele><time>2026-04-16T11:13:06.002Z</time></trkpt><trkpt lat="43.782142483006936" lon="10.93074211199332"><ele>45.0</ele><time>2026-04-16T11:13:09.002Z</time></trkpt><trkpt lat="43.78218100716311" lon="10.930823357601358"><ele>45.42857142857142</ele><time>2026-04-16T11:13:12.002Z</time></trkpt><trkpt lat="43.782228385608754" lon="10.930902098474546"><ele>45.85714285714286</ele><time>2026-04-16T11:13:15.002Z</time></trkpt><trkpt lat="43.782278372906404" lon="10.930987243087667"><ele>46.285714285714285</ele><time>2026-04-16T11:13:18.002Z</time></trkpt><trkpt lat="43.782333824949006" lon="10.931033084842795"><ele>46.71428571428571</ele><time>2026-04-16T11:13:21.002Z</time></trkpt><trkpt lat="43.78239655855255" lon="10.931061856683932"><ele>47.14285714285714</ele><time>2026-04-16T11:13:24.002Z</time></trkpt><trkpt lat="43.78246486506464" lon="10.931119050886446"><ele>47.57142857142857</ele><time>2026-04-16T11:13:28.002Z</time></trkpt><trkpt lat="43.78252042964717" lon="10.931173528066678"><ele>48.0</ele><time>2026-04-16T11:13:31.002Z</time></trkpt><trkpt lat="43.782569305307554" lon="10.931255610675944"><ele>47.99999999999999</ele><time>2026-04-16T11:13:34.002Z</time></trkpt><trkpt lat="43.78261195587217" lon="10.931348845278453"><ele>48.0</ele><time>2026-04-16T11:13:37.002Z</time></trkpt><trkpt lat="43.78265428230298" lon="10.93143745529232"><ele>48.0</ele><time>2026-04-16T11:13:40.002Z</time></trkpt><trkpt lat="43.78270932466841" lon="10.931506268282577"><ele>48.0</ele><time>2026-04-16T11:13:43.002Z</time></trkpt><trkpt lat="43.78275634664286" lon="10.931573333495942"><ele>48.0</ele><time>2026-04-16T11:13:46.002Z</time></trkpt><trkpt lat="43.78280276987585" lon="10.931644717356386"><ele>47.99999999999999</ele><time>2026-04-16T11:13:49.002Z</time></trkpt><trkpt lat="43.7828522333436" lon="10.931712548107464"><ele>48.0</ele><time>2026-04-16T11:13:52.002Z</time></trkpt><trkpt lat="43.78290659469134" lon="10.931762455557244"><ele>48.57142857142857</ele><time>2026-04-16T11:13:55.002Z</time></trkpt><trkpt lat="43.78297003307437" lon="10.931808713694473"><ele>49.14285714285714</ele><time>2026-04-16T11:13:58.002Z</time></trkpt><trkpt lat="43.7830277666" lon="10.931864601125154"><ele>49.71428571428571</ele><time>2026-04-16T11:14:01.002Z</time></trkpt><trkpt lat="43.783084052012065" lon="10.931918690036305"><ele>50.285714285714285</ele><time>2026-04-16T11:14:04.002Z</time></trkpt><trkpt lat="43.78313334973795" lon="10.931981143520197"><ele>50.85714285714286</ele><time>2026-04-16T11:14:07.002Z</time></trkpt><trkpt lat="43.783182543169815" lon="10.932046485536285"><ele>51.42857142857142</ele><time>2026-04-16T11:14:10.002Z</time></trkpt><trkpt lat="43.78323372894576" lon="10.932110990900657"><ele>52.0</ele><time>2026-04-16T11:14:13.002Z</time></trkpt><trkpt lat="43.78330056742494" lon="10.932160690978893"><ele>52.0</ele><time>2026-04-16T11:14:16.002Z</time></trkpt><trkpt lat="43.783364364915975" lon="10.932210315371112"><ele>52.0</ele><time>2026-04-16T11:14:19.002Z</time></trkpt><trkpt lat="43.78342031828214" lon="10.932278581029184"><ele>52.0</ele><time>2026-04-16T11:14:22.002Z</time></trkpt><trkpt lat="43.783482807629355" lon="10.932310776312415"><ele>52.0</ele><time>2026-04-16T11:14:25.002Z</time></trkpt><trkpt lat="43.783549065346634" lon="10.93233333875865"><ele>52.0</ele><time>2026-04-16T11:14:28.002Z</time></trkpt><trkpt lat="43.78361626887618" lon="10.9323538833677"><ele>52.0</ele><time>2026-04-16T11:14:31.002Z</time></trkpt><trkpt lat="43.783682989455855" lon="10.932382378041245"><ele>52.0</ele><time>2026-04-16T11:14:34.002Z</time></trkpt><trkpt lat="43.7837508212847" lon="10.932375550361911"><ele>52.42857142857142</ele><time>2026-04-16T11:14:37.002Z</time></trkpt><trkpt lat="43.783814732227576" lon="10.932389472938722"><ele>52.85714285714286</ele><time>2026-04-16T11:14:40.002Z</time></trkpt><trkpt lat="43.7838804459095" lon="10.932395025335941"><ele>53.285714285714285</ele><time>2026-04-16T11:14:43.002Z</time></trkpt><trkpt lat="43.78394508790901" lon="10.932422781908631"><ele>53.71428571428571</ele><time>2026-04-16T11:14:46.002Z</time></trkpt><trkpt lat="43.7840143338494" lon="10.932467976779431"><ele>54.14285714285714</ele><time>2026-04-16T11:14:49.002Z</time></trkpt><trkpt lat="43.784077191025375" lon="10.93251789005739"><ele>54.57142857142857</ele><time>2026-04-16T11:14:52.002Z</time></trkpt><trkpt lat="43.78414733811614" lon="10.93257352029515"><ele>55.0</ele><time>2026-04-16T11:14:56.002Z</time></trkpt><trkpt lat="43.78419415608617" lon="10.932637539952813"><ele>54.99999999999999</ele><time>2026-04-16T11:14:59.003Z</time></trkpt><trkpt lat="43.78425140920903" lon="10.93269512340537"><ele>55.0</ele><time>2026-04-16T11:15:02.003Z</time></trkpt><trkpt lat="43.78430309579292" lon="10.93278279624915"><ele>55.0</ele><time>2026-04-16T11:15:06.003Z</time></trkpt><trkpt lat="43.784339184345555" lon="10.932855825725465"><ele>55.0</ele><time>2026-04-16T11:15:09.003Z</time></trkpt><trkpt lat="43.78437762309964" lon="10.932937559588044"><ele>55.0</ele><time>2026-04-16T11:15:12.003Z</time></trkpt><trkpt lat="43.78441264599039" lon="10.93301529071453"><ele>54.99999999999999</ele><time>2026-04-16T11:15:15.003Z</time></trkpt><trkpt lat="43.7844565384588" lon="10.933086485059167"><ele>55.0</ele><time>2026-04-16T11:15:18.003Z</time></trkpt><trkpt lat="43.784512624022675" lon="10.933147727927997"><ele>54.857142857142854</ele><time>2026-04-16T11:15:21.003Z</time></trkpt><trkpt lat="43.78455859009031" lon="10.933219005757914"><ele>54.714285714285715</ele><time>2026-04-16T11:15:24.003Z</time></trkpt><trkpt lat="43.784608527427665" lon="10.933278345840659"><ele>54.57142857142857</ele><time>2026-04-16T11:15:27.003Z</time></trkpt><trkpt lat="43.784659662574164" lon="10.933331585626336"><ele>54.42857142857143</ele><time>2026-04-16T11:15:30.003Z</time></trkpt><trkpt lat="43.78471552299487" lon="10.933379106547065"><ele>54.285714285714285</ele><time>2026-04-16T11:15:33.003Z</time></trkpt><trkpt lat="43.78478727000887" lon="10.93340525595821"><ele>54.14285714285714</ele><time>2026-04-16T11:15:36.003Z</time></trkpt><trkpt lat="43.784850070416795" lon="10.933446872423067"><ele>54.0</ele><time>2026-04-16T11:15:39.003Z</time></trkpt><trkpt lat="43.78491324639108" lon="10.933486511748027"><ele>54.0</ele><time>2026-04-16T11:15:42.003Z</time></trkpt><trkpt lat="43.78497840260334" lon="10.9335170557781"><ele>54.0</ele><time>2026-04-16T11:15:45.003Z</time></trkpt><trkpt lat="43.78504974695453" lon="10.933579053123486"><ele>54.0</ele><time>2026-04-16T11:15:49.003Z</time></trkpt><trkpt lat="43.785118318630325" lon="10.933648978163907"><ele>54.0</ele><time>2026-04-16T11:15:53.003Z</time></trkpt><trkpt lat="43.78517097666199" lon="10.933710489195366"><ele>54.0</ele><time>2026-04-16T11:15:56.003Z</time></trkpt><trkpt lat="43.785228712271746" lon="10.933761110105818"><ele>54.0</ele><time>2026-04-16T11:15:59.003Z</time></trkpt><trkpt lat="43.78529303865331" lon="10.933802543896228"><ele>54.0</ele><time>2026-04-16T11:16:02.003Z</time></trkpt><trkpt lat="43.78535477710133" lon="10.93383537118677"><ele>54.42857142857143</ele><time>2026-04-16T11:16:05.003Z</time></trkpt><trkpt lat="43.7854230849887" lon="10.933872870894332"><ele>54.857142857142854</ele><time>2026-04-16T11:16:08.003Z</time></trkpt><trkpt lat="43.78549290164867" lon="10.933910658726283"><ele>55.285714285714285</ele><time>2026-04-16T11:16:11.003Z</time></trkpt><trkpt lat="43.785560799850046" lon="10.933958475816155"><ele>55.71428571428571</ele><time>2026-04-16T11:16:14.003Z</time></trkpt><trkpt lat="43.78562244868854" lon="10.933990366061003"><ele>56.14285714285714</ele><time>2026-04-16T11:16:17.003Z</time></trkpt><trkpt lat="43.78570067227582" lon="10.934025315329253"><ele>56.57142857142857</ele><time>2026-04-16T11:16:21.003Z</time></trkpt><trkpt lat="43.78576582830931" lon="10.934040946395191"><ele>57.0</ele><time>2026-04-16T11:16:24.003Z</time></trkpt><trkpt lat="43.78584704279125" lon="10.934074151249238"><ele>57.0</ele><time>2026-04-16T11:16:28.002Z</time></trkpt><trkpt lat="43.785907140171034" lon="10.934105837747412"><ele>56.99999999999999</ele><time>2026-04-16T11:16:31.002Z</time></trkpt><trkpt lat="43.785980588114086" lon="10.934149525028689"><ele>57.0</ele><time>2026-04-16T11:16:35.002Z</time></trkpt><trkpt lat="43.78603938053398" lon="10.934187678982335"><ele>57.0</ele><time>2026-04-16T11:16:38.002Z</time></trkpt><trkpt lat="43.786099772157144" lon="10.934212824054475"><ele>56.99999999999999</ele><time>2026-04-16T11:16:41.002Z</time></trkpt><trkpt lat="43.78617723300556" lon="10.934244960963518"><ele>57.0</ele><time>2026-04-16T11:16:45.002Z</time></trkpt><trkpt lat="43.78624807726237" lon="10.934288620236895"><ele>57.0</ele><time>2026-04-16T11:16:49.002Z</time></trkpt><trkpt lat="43.78632128092558" lon="10.934340080267479"><ele>57.71428571428571</ele><time>2026-04-16T11:16:53.002Z</time></trkpt><trkpt lat="43.786386437209586" lon="10.934374099727401"><ele>58.42857142857142</ele><time>2026-04-16T11:16:57.002Z</time></trkpt><trkpt lat="43.78645843999501" lon="10.934399865423892"><ele>59.14285714285714</ele><time>2026-04-16T11:17:01.002Z</time></trkpt><trkpt lat="43.7865216402927" lon="10.934434809900548"><ele>59.85714285714286</ele><time>2026-04-16T11:17:05.004Z</time></trkpt><trkpt lat="43.786580081239194" lon="10.93447383396568"><ele>60.57142857142858</ele><time>2026-04-16T11:17:09.003Z</time></trkpt><trkpt lat="43.786642766199634" lon="10.934523467813081"><ele>61.28571428571429</ele><time>2026-04-16T11:17:14.003Z</time></trkpt><trkpt lat="43.786704683498904" lon="10.934582579281468"><ele>62.0</ele><time>2026-04-16T11:17:19.003Z</time></trkpt><trkpt lat="43.786773535930635" lon="10.934617608481675"><ele>62.0</ele><time>2026-04-16T11:17:24.003Z</time></trkpt><trkpt lat="43.7868305736987" lon="10.93467109828589"><ele>62.00000000000001</ele><time>2026-04-16T11:17:29.003Z</time></trkpt><trkpt lat="43.786884776074075" lon="10.934741034312772"><ele>62.0</ele><time>2026-04-16T11:17:35.003Z</time></trkpt><trkpt lat="43.786918407187464" lon="10.934837194213598"><ele>62.0</ele><time>2026-04-16T11:17:40.003Z</time></trkpt><trkpt lat="43.78696874141504" lon="10.934899865719554"><ele>62.00000000000001</ele><time>2026-04-16T11:17:45.003Z</time></trkpt><trkpt lat="43.787018211093525" lon="10.934961153198008"><ele>62.0</ele><time>2026-04-16T11:17:50.003Z</time></trkpt><trkpt lat="43.78708462686344" lon="10.93499435090091"><ele>62.0</ele><time>2026-04-16T11:17:55.003Z</time></trkpt><trkpt lat="43.78714809230835" lon="10.935042973034017"><ele>64.28571428571429</ele><time>2026-04-16T11:18:00.003Z</time></trkpt><trkpt lat="43.78721151756632" lon="10.935071636455984"><ele>66.57142857142858</ele><time>2026-04-16T11:18:05.003Z</time></trkpt><trkpt lat="43.787270529523056" lon="10.93512693394028"><ele>68.85714285714286</ele><time>2026-04-16T11:18:10.003Z</time></trkpt><trkpt lat="43.78732664765204" lon="10.935166692250943"><ele>71.14285714285714</ele><time>2026-04-16T11:18:14.003Z</time></trkpt><trkpt lat="43.787380040362834" lon="10.93521355874814"><ele>73.42857142857142</ele><time>2026-04-16T11:18:18.003Z</time></trkpt><trkpt lat="43.78744234787259" lon="10.935272578514734"><ele>75.71428571428572</ele><time>2026-04-16T11:18:23.003Z</time></trkpt><trkpt lat="43.78749620005448" lon="10.935323154714196"><ele>78.0</ele><time>2026-04-16T11:18:27.003Z</time></trkpt><trkpt lat="43.787550215787896" lon="10.93537252221195"><ele>78.0</ele><time>2026-04-16T11:18:32.003Z</time></trkpt><trkpt lat="43.78758483849743" lon="10.935445684118278"><ele>78.0</ele><time>2026-04-16T11:18:36.002Z</time></trkpt><trkpt lat="43.78763550024107" lon="10.93552127039614"><ele>78.0</ele><time>2026-04-16T11:18:42.002Z</time></trkpt><trkpt lat="43.787702644682994" lon="10.935560576712525"><ele>78.0</ele><time>2026-04-16T11:18:52.002Z</time></trkpt><trkpt lat="43.787752162126296" lon="10.935625610481575"><ele>78.0</ele><time>2026-04-16T11:18:59.002Z</time></trkpt><trkpt lat="43.78781099819455" lon="10.935691286734636"><ele>78.0</ele><time>2026-04-16T11:19:07.002Z</time></trkpt><trkpt lat="43.78785559264918" lon="10.935756886624297"><ele>78.0</ele><time>2026-04-16T11:19:13.004Z</time></trkpt><trkpt lat="43.787908497952685" lon="10.935834442057226"><ele>80.14285714285715</ele><time>2026-04-16T11:19:19.003Z</time></trkpt><trkpt lat="43.78795459059477" lon="10.935902225451695"><ele>82.28571428571428</ele><time>2026-04-16T11:19:25.003Z</time></trkpt><trkpt lat="43.78800700680503" lon="10.935966655334063"><ele>84.42857142857143</ele><time>2026-04-16T11:19:31.003Z</time></trkpt><trkpt lat="43.788064748054495" lon="10.936017422666884"><ele>86.57142857142858</ele><time>2026-04-16T11:19:36.003Z</time></trkpt><trkpt lat="43.7881185690622" lon="10.936075462254367"><ele>88.71428571428572</ele><time>2026-04-16T11:19:42.003Z</time></trkpt><trkpt lat="43.788167706411095" lon="10.936148612424772"><ele>90.85714285714286</ele><time>2026-04-16T11:19:48.003Z</time></trkpt><trkpt lat="43.78820413702096" lon="10.93622327463352"><ele>93.0</ele><time>2026-04-16T11:19:53.003Z</time></trkpt><trkpt lat="43.78824661572548" lon="10.936302931520048"><ele>93.00000000000001</ele><time>2026-04-16T11:19:58.003Z</time></trkpt><trkpt lat="43.78829063357097" lon="10.936386710037665"><ele>93.0</ele><time>2026-04-16T11:20:04.003Z</time></trkpt><trkpt lat="43.7883199175379" lon="10.93647227457431"><ele>93.0</ele><time>2026-04-16T11:20:10.003Z</time></trkpt><trkpt lat="43.788373199025926" lon="10.936548637990814"><ele>93.0</ele><time>2026-04-16T11:20:16.003Z</time></trkpt><trkpt lat="43.788446190128816" lon="10.936553875063769"><ele>93.0</ele><time>2026-04-16T11:20:21.003Z</time></trkpt><trkpt lat="43.788528555626705" lon="10.936563380901125"><ele>93.00000000000001</ele><time>2026-04-16T11:20:25.003Z</time></trkpt><trkpt lat="43.788592698536746" lon="10.936577264195526"><ele>93.0</ele><time>2026-04-16T11:20:28.003Z</time></trkpt><trkpt lat="43.78865479339266" lon="10.936593579153222"><ele>94.16666666666667</ele><time>2026-04-16T11:20:31.003Z</time></trkpt><trkpt lat="43.788734068693" lon="10.936608197159902"><ele>95.33333333333334</ele><time>2026-04-16T11:20:35.003Z</time></trkpt><trkpt lat="43.78881633094928" lon="10.936615098581166"><ele>96.5</ele><time>2026-04-16T11:20:39.003Z</time></trkpt><trkpt lat="43.78889455199103" lon="10.936616979837966"><ele>97.66666666666667</ele><time>2026-04-16T11:20:43.003Z</time></trkpt><trkpt lat="43.788980122800616" lon="10.936601754017998"><ele>98.83333333333334</ele><time>2026-04-16T11:20:47.003Z</time></trkpt><trkpt lat="43.78905688924137" lon="10.936577708034655"><ele>100.0</ele><time>2026-04-16T11:20:51.003Z</time></trkpt><trkpt lat="43.78912476902466" lon="10.93652517021875"><ele>100.00000000000001</ele><time>2026-04-16T11:20:55.003Z</time></trkpt><trkpt lat="43.78919920718483" lon="10.936481188852788"><ele>100.0</ele><time>2026-04-16T11:20:59.003Z</time></trkpt><trkpt lat="43.78925805371673" lon="10.936447266016314"><ele>100.0</ele><time>2026-04-16T11:21:02.003Z</time></trkpt><trkpt lat="43.78932710712428" lon="10.93640481658414"><ele>100.0</ele><time>2026-04-16T11:21:06.003Z</time></trkpt><trkpt lat="43.78939195970871" lon="10.936373037092096"><ele>100.0</ele><time>2026-04-16T11:21:09.003Z</time></trkpt><trkpt lat="43.78944433858833" lon="10.936324193786131"><ele>100.00000000000001</ele><time>2026-04-16T11:21:12.003Z</time></trkpt><trkpt lat="43.78947794512398" lon="10.93622369855293"><ele>100.0</ele><time>2026-04-16T11:21:16.004Z</time></trkpt><trkpt lat="43.78948842693828" lon="10.936115922416965"><ele>101.00000000000001</ele><time>2026-04-16T11:21:20.004Z</time></trkpt><trkpt lat="43.78947546392573" lon="10.936030328136663"><ele>102.0</ele><time>2026-04-16T11:21:23.004Z</time></trkpt><trkpt lat="43.789458691504535" lon="10.935919594984814"><ele>103.0</ele><time>2026-04-16T11:21:27.004Z</time></trkpt><trkpt lat="43.78946594619762" lon="10.935809000087682"><ele>104.0</ele><time>2026-04-16T11:21:31.003Z</time></trkpt><trkpt lat="43.789460848050375" lon="10.93570185793923"><ele>105.00000000000001</ele><time>2026-04-16T11:21:35.003Z</time></trkpt><trkpt lat="43.78950255942355" lon="10.93563271346958"><ele>106.0</ele><time>2026-04-16T11:21:38.003Z</time></trkpt><trkpt lat="43.789597031381525" lon="10.93559390451826"><ele>106.00000000000001</ele><time>2026-04-16T11:21:43.003Z</time></trkpt><trkpt lat="43.78965894865812" lon="10.935523878556696"><ele>106.0</ele><time>2026-04-16T11:21:47.003Z</time></trkpt><trkpt lat="43.78972063647045" lon="10.93550173744585"><ele>106.0</ele><time>2026-04-16T11:21:50.003Z</time></trkpt><trkpt lat="43.789787620132536" lon="10.935492356818012"><ele>106.0</ele><time>2026-04-16T11:21:53.003Z</time></trkpt><trkpt lat="43.78985954349654" lon="10.935469424872943"><ele>106.00000000000001</ele><time>2026-04-16T11:21:57.003Z</time></trkpt><trkpt lat="43.789933988172805" lon="10.935426847781137"><ele>106.0</ele><time>2026-04-16T11:22:01.003Z</time></trkpt><trkpt lat="43.79001847734873" lon="10.935416590982241"><ele>106.0</ele><time>2026-04-16T11:22:05.003Z</time></trkpt><trkpt lat="43.79008671843886" lon="10.93540020934942"><ele>106.0</ele><time>2026-04-16T11:22:08.003Z</time></trkpt><trkpt lat="43.79016541738436" lon="10.935434963338054"><ele>106.0</ele><time>2026-04-16T11:22:12.003Z</time></trkpt><trkpt lat="43.79022594755035" lon="10.935464672912259"><ele>106.0</ele><time>2026-04-16T11:22:15.003Z</time></trkpt><trkpt lat="43.790293227334" lon="10.93547298013765"><ele>106.0</ele><time>2026-04-16T11:22:18.003Z</time></trkpt><trkpt lat="43.79037351145566" lon="10.935501270156411"><ele>106.0</ele><time>2026-04-16T11:22:22.003Z</time></trkpt><trkpt lat="43.79044250059795" lon="10.935546325674876"><ele>106.0</ele><time>2026-04-16T11:22:25.003Z</time></trkpt><trkpt lat="43.790511026335324" lon="10.93557193126548"><ele>107.42857142857143</ele><time>2026-04-16T11:22:28.003Z</time></trkpt><trkpt lat="43.79058055773181" lon="10.935577134831421"><ele>108.85714285714286</ele><time>2026-04-16T11:22:31.003Z</time></trkpt><trkpt lat="43.79064621865283" lon="10.935552357538546"><ele>110.28571428571429</ele><time>2026-04-16T11:22:34.003Z</time></trkpt><trkpt lat="43.790701408256645" lon="10.935497185199042"><ele>111.71428571428572</ele><time>2026-04-16T11:22:38.003Z</time></trkpt><trkpt lat="43.79066489550206" lon="10.935421594368014"><ele>113.14285714285714</ele><time>2026-04-16T11:22:42.003Z</time></trkpt><trkpt lat="43.79060796584716" lon="10.935378994009268"><ele>114.57142857142858</ele><time>2026-04-16T11:22:45.003Z</time></trkpt><trkpt lat="43.790547732928104" lon="10.935320058022993"><ele>116.00000000000001</ele><time>2026-04-16T11:22:48.003Z</time></trkpt><trkpt lat="43.79051022028909" lon="10.935243925809358"><ele>116.00000000000001</ele><time>2026-04-16T11:22:51.003Z</time></trkpt><trkpt lat="43.79047681780878" lon="10.935160465306666"><ele>116.0</ele><time>2026-04-16T11:22:54.003Z</time></trkpt><trkpt lat="43.7904508103659" lon="10.93507457742917"><ele>116.00000000000001</ele><time>2026-04-16T11:22:57.003Z</time></trkpt><trkpt lat="43.79042068245941" lon="10.934971242312074"><ele>116.00000000000001</ele><time>2026-04-16T11:23:01.003Z</time></trkpt><trkpt lat="43.79045022170066" lon="10.934886913542062"><ele>116.0</ele><time>2026-04-16T11:23:04.003Z</time></trkpt><trkpt lat="43.79050395217907" lon="10.934833797352269"><ele>116.00000000000001</ele><time>2026-04-16T11:23:08.003Z</time></trkpt><trkpt lat="43.790581167372004" lon="10.934807602523975"><ele>116.00000000000001</ele><time>2026-04-16T11:23:13.003Z</time></trkpt><trkpt lat="43.79063846506323" lon="10.934761025133849"><ele>117.2857142857143</ele><time>2026-04-16T11:23:17.003Z</time></trkpt><trkpt lat="43.79069528435605" lon="10.934706032597125"><ele>118.57142857142858</ele><time>2026-04-16T11:23:21.004Z</time></trkpt><trkpt lat="43.79075868240885" lon="10.934659657251146"><ele>119.85714285714286</ele><time>2026-04-16T11:23:26.004Z</time></trkpt><trkpt lat="43.79079207182218" lon="10.934570873683056"><ele>121.14285714285715</ele><time>2026-04-16T11:23:30.004Z</time></trkpt><trkpt lat="43.79085381243784" lon="10.934504053766247"><ele>122.42857142857144</ele><time>2026-04-16T11:23:35.004Z</time></trkpt><trkpt lat="43.79091675880074" lon="10.934465720166607"><ele>123.71428571428571</ele><time>2026-04-16T11:23:40.004Z</time></trkpt><trkpt lat="43.79098440395978" lon="10.9344441314737"><ele>125.0</ele><time>2026-04-16T11:23:45.004Z</time></trkpt><trkpt lat="43.791040331040506" lon="10.934383018790244"><ele>125.0</ele><time>2026-04-16T11:23:50.004Z</time></trkpt><trkpt lat="43.79110981717217" lon="10.934350160795656"><ele>125.0</ele><time>2026-04-16T11:23:55.004Z</time></trkpt><trkpt lat="43.79117782227906" lon="10.934333422999892"><ele>125.0</ele><time>2026-04-16T11:24:00.004Z</time></trkpt><trkpt lat="43.791246082740116" lon="10.934327810436152"><ele>125.0</ele><time>2026-04-16T11:24:05.004Z</time></trkpt><trkpt lat="43.791313824497" lon="10.93431928618261"><ele>125.0</ele><time>2026-04-16T11:24:10.004Z</time></trkpt><trkpt lat="43.79138877883786" lon="10.934316378108589"><ele>125.0</ele><time>2026-04-16T11:24:16.004Z</time></trkpt><trkpt lat="43.79145647535597" lon="10.934290780452189"><ele>125.0</ele><time>2026-04-16T11:24:22.004Z</time></trkpt><trkpt lat="43.791528793337676" lon="10.934300581953472"><ele>125.0</ele><time>2026-04-16T11:24:28.004Z</time></trkpt><trkpt lat="43.79160193860466" lon="10.93431597655594"><ele>125.0</ele><time>2026-04-16T11:24:39.004Z</time></trkpt><trkpt lat="43.79163740915735" lon="10.934239669206928"><ele>125.0</ele><time>2026-04-16T11:24:45.004Z</time></trkpt><trkpt lat="43.791667487759405" lon="10.93415180976883"><ele>125.0</ele><time>2026-04-16T11:24:50.004Z</time></trkpt><trkpt lat="43.79165596861135" lon="10.934058313385208"><ele>125.0</ele><time>2026-04-16T11:24:54.004Z</time></trkpt><trkpt lat="43.791671357635906" lon="10.933958372503078"><ele>125.0</ele><time>2026-04-16T11:24:59.004Z</time></trkpt><trkpt lat="43.791684011246836" lon="10.933866417577006"><ele>125.0</ele><time>2026-04-16T11:25:04.004Z</time></trkpt><trkpt lat="43.79170197388593" lon="10.933770324048172"><ele>126.14285714285714</ele><time>2026-04-16T11:25:08.004Z</time></trkpt><trkpt lat="43.7917347292847" lon="10.933695031860772"><ele>127.28571428571429</ele><time>2026-04-16T11:25:12.004Z</time></trkpt><trkpt lat="43.79180386114736" lon="10.933658150374443"><ele>128.42857142857144</ele><time>2026-04-16T11:25:18.004Z</time></trkpt><trkpt lat="43.79186369633797" lon="10.933592996589947"><ele>129.57142857142856</ele><time>2026-04-16T11:25:25.004Z</time></trkpt><trkpt lat="43.791922665565224" lon="10.933536013589686"><ele>130.71428571428572</ele><time>2026-04-16T11:25:29.004Z</time></trkpt><trkpt lat="43.79197474088308" lon="10.933460764050196"><ele>131.85714285714286</ele><time>2026-04-16T11:25:33.004Z</time></trkpt><trkpt lat="43.7920234529933" lon="10.933379748031827"><ele>133.0</ele><time>2026-04-16T11:25:37.004Z</time></trkpt><trkpt lat="43.79206634281409" lon="10.933298118534898"><ele>133.14285714285714</ele><time>2026-04-16T11:25:41.004Z</time></trkpt><trkpt lat="43.79207722310763" lon="10.933194650797073"><ele>133.28571428571428</ele><time>2026-04-16T11:25:45.004Z</time></trkpt><trkpt lat="43.79207024422602" lon="10.933100393834533"><ele>133.42857142857144</ele><time>2026-04-16T11:25:49.004Z</time></trkpt><trkpt lat="43.792019819738755" lon="10.933046654163553"><ele>133.57142857142856</ele><time>2026-04-16T11:25:53.004Z</time></trkpt><trkpt lat="43.79194553287795" lon="10.933007903336422"><ele>133.71428571428572</ele><time>2026-04-16T11:25:58.004Z</time></trkpt><trkpt lat="43.791876693806735" lon="10.933003298390865"><ele>133.85714285714286</ele><time>2026-04-16T11:26:02.004Z</time></trkpt><trkpt lat="43.791808961766506" lon="10.933013325129544"><ele>134.0</ele><time>2026-04-16T11:26:06.004Z</time></trkpt><trkpt lat="43.79174131819088" lon="10.933010759088162"><ele>132.14285714285714</ele><time>2026-04-16T11:26:11.004Z</time></trkpt><trkpt lat="43.79167301479608" lon="10.933010671268523"><ele>130.28571428571428</ele><time>2026-04-16T11:26:15.004Z</time></trkpt><trkpt lat="43.79160524663834" lon="10.933009239384178"><ele>128.42857142857142</ele><time>2026-04-16T11:26:19.004Z</time></trkpt><trkpt lat="43.791530323453266" lon="10.933001356229656"><ele>126.57142857142857</ele><time>2026-04-16T11:26:23.004Z</time></trkpt><trkpt lat="43.79144536969944" lon="10.932988038094583"><ele>124.7142857142857</ele><time>2026-04-16T11:26:27.004Z</time></trkpt><trkpt lat="43.791382548007604" lon="10.93299579685975"><ele>122.85714285714285</ele><time>2026-04-16T11:26:30.004Z</time></trkpt><trkpt lat="43.7913198834593" lon="10.933029379935611"><ele>121.0</ele><time>2026-04-16T11:26:33.004Z</time></trkpt><trkpt lat="43.79125329879131" lon="10.933038023335165"><ele>121.0</ele><time>2026-04-16T11:26:36.004Z</time></trkpt><trkpt lat="43.791178752305164" lon="10.933066763196118"><ele>120.99999999999999</ele><time>2026-04-16T11:26:40.004Z</time></trkpt><trkpt lat="43.791101521130905" lon="10.933064595452102"><ele>121.0</ele><time>2026-04-16T11:26:45.004Z</time></trkpt><trkpt lat="43.79103038783571" lon="10.933032509918128"><ele>121.0</ele><time>2026-04-16T11:26:49.004Z</time></trkpt><trkpt lat="43.79096610562384" lon="10.93302671233088"><ele>120.99999999999999</ele><time>2026-04-16T11:26:53.004Z</time></trkpt><trkpt lat="43.790906390115516" lon="10.932994738372608"><ele>121.0</ele><time>2026-04-16T11:26:57.004Z</time></trkpt><trkpt lat="43.790836628192594" lon="10.93296545948239"><ele>121.0</ele><time>2026-04-16T11:27:01.004Z</time></trkpt><trkpt lat="43.790770728444336" lon="10.932918838804742"><ele>121.14285714285714</ele><time>2026-04-16T11:27:05.004Z</time></trkpt><trkpt lat="43.790702787983214" lon="10.932874769370878"><ele>121.28571428571428</ele><time>2026-04-16T11:27:09.004Z</time></trkpt><trkpt lat="43.790645859910065" lon="10.932829410647921"><ele>121.42857142857142</ele><time>2026-04-16T11:27:12.004Z</time></trkpt><trkpt lat="43.79057738575464" lon="10.932785363007241"><ele>121.57142857142856</ele><time>2026-04-16T11:27:16.004Z</time></trkpt><trkpt lat="43.790515836385495" lon="10.932761336718894"><ele>121.71428571428571</ele><time>2026-04-16T11:27:19.004Z</time></trkpt><trkpt lat="43.79045296620259" lon="10.932749559312214"><ele>121.85714285714283</ele><time>2026-04-16T11:27:22.004Z</time></trkpt><trkpt lat="43.79039215645293" lon="10.932706910664368"><ele>121.99999999999999</ele><time>2026-04-16T11:27:25.004Z</time></trkpt><trkpt lat="43.79031937732186" lon="10.93266240697058"><ele>121.99999999999999</ele><time>2026-04-16T11:27:29.004Z</time></trkpt><trkpt lat="43.79026268096525" lon="10.93258924630494"><ele>122.0</ele><time>2026-04-16T11:27:32.004Z</time></trkpt><trkpt lat="43.79019846428276" lon="10.932534919257842"><ele>121.99999999999999</ele><time>2026-04-16T11:27:35.004Z</time></trkpt><trkpt lat="43.79013250757714" lon="10.932494292068688"><ele>121.99999999999999</ele><time>2026-04-16T11:27:38.004Z</time></trkpt><trkpt lat="43.79006796168903" lon="10.932459095419814"><ele>122.0</ele><time>2026-04-16T11:27:41.005Z</time></trkpt><trkpt lat="43.78999646353025" lon="10.932443711975635"><ele>121.99999999999999</ele><time>2026-04-16T11:27:44.004Z</time></trkpt><trkpt lat="43.78993151681406" lon="10.932407198929166"><ele>121.99999999999999</ele><time>2026-04-16T11:27:47.004Z</time></trkpt><trkpt lat="43.78986613737467" lon="10.932377839256423"><ele>121.66666666666666</ele><time>2026-04-16T11:27:50.004Z</time></trkpt><trkpt lat="43.789801793970504" lon="10.932325168810856"><ele>121.33333333333333</ele><time>2026-04-16T11:27:53.004Z</time></trkpt><trkpt lat="43.789733416475904" lon="10.932281677794185"><ele>121.0</ele><time>2026-04-16T11:27:56.004Z</time></trkpt><trkpt lat="43.789659026162866" lon="10.932232040652893"><ele>120.66666666666666</ele><time>2026-04-16T11:27:59.004Z</time></trkpt><trkpt lat="43.789588554201714" lon="10.93219224606987"><ele>120.33333333333333</ele><time>2026-04-16T11:28:02.004Z</time></trkpt><trkpt lat="43.789522127631024" lon="10.932159328984039"><ele>120.0</ele><time>2026-04-16T11:28:05.004Z</time></trkpt><trkpt lat="43.78945511616278" lon="10.932123043374334"><ele>120.0</ele><time>2026-04-16T11:28:08.004Z</time></trkpt><trkpt lat="43.78938759907542" lon="10.932081804194842"><ele>120.0</ele><time>2026-04-16T11:28:11.004Z</time></trkpt><trkpt lat="43.78932288735819" lon="10.932055607144587"><ele>120.0</ele><time>2026-04-16T11:28:14.004Z</time></trkpt><trkpt lat="43.789255258688065" lon="10.93200853397288"><ele>120.0</ele><time>2026-04-16T11:28:17.004Z</time></trkpt><trkpt lat="43.78919083904433" lon="10.931967701838994"><ele>120.0</ele><time>2026-04-16T11:28:20.004Z</time></trkpt><trkpt lat="43.78912303643868" lon="10.931925931262782"><ele>120.0</ele><time>2026-04-16T11:28:23.004Z</time></trkpt><trkpt lat="43.789049928955365" lon="10.931880611208522"><ele>120.0</ele><time>2026-04-16T11:28:26.004Z</time></trkpt><trkpt lat="43.78898858493497" lon="10.931843562150867"><ele>120.5</ele><time>2026-04-16T11:28:29.004Z</time></trkpt><trkpt lat="43.788919558873445" lon="10.931819303443282"><ele>121.0</ele><time>2026-04-16T11:28:32.004Z</time></trkpt><trkpt lat="43.78884585635093" lon="10.93176397317575"><ele>121.5</ele><time>2026-04-16T11:28:35.004Z</time></trkpt><trkpt lat="43.78878432204269" lon="10.931715566161632"><ele>122.0</ele><time>2026-04-16T11:28:38.004Z</time></trkpt><trkpt lat="43.78871432392234" lon="10.931648597069328"><ele>122.5</ele><time>2026-04-16T11:28:41.004Z</time></trkpt><trkpt lat="43.78864605335025" lon="10.931591555264207"><ele>123.0</ele><time>2026-04-16T11:28:44.004Z</time></trkpt><trkpt lat="43.788579277939036" lon="10.931559033183452"><ele>122.5</ele><time>2026-04-16T11:28:47.004Z</time></trkpt><trkpt lat="43.78850771521625" lon="10.931536980681791"><ele>122.0</ele><time>2026-04-16T11:28:50.004Z</time></trkpt><trkpt lat="43.78843590536537" lon="10.931516308132442"><ele>121.5</ele><time>2026-04-16T11:28:53.004Z</time></trkpt><trkpt lat="43.78835361663704" lon="10.931497542237652"><ele>121.0</ele><time>2026-04-16T11:28:56.004Z</time></trkpt><trkpt lat="43.788278987709056" lon="10.931490427707342"><ele>120.5</ele><time>2026-04-16T11:28:59.004Z</time></trkpt><trkpt lat="43.788199082225994" lon="10.931490512735152"><ele>120.0</ele><time>2026-04-16T11:29:02.003Z</time></trkpt><trkpt lat="43.78813205423696" lon="10.931497055858102"><ele>120.0</ele><time>2026-04-16T11:29:05.003Z</time></trkpt><trkpt lat="43.78806405152893" lon="10.93147847380942"><ele>120.0</ele><time>2026-04-16T11:29:08.003Z</time></trkpt><trkpt lat="43.78798746059141" lon="10.931449116881662"><ele>120.0</ele><time>2026-04-16T11:29:11.003Z</time></trkpt><trkpt lat="43.78791245135204" lon="10.931404481942966"><ele>120.0</ele><time>2026-04-16T11:29:14.003Z</time></trkpt><trkpt lat="43.787834506758095" lon="10.931361608143918"><ele>120.0</ele><time>2026-04-16T11:29:17.003Z</time></trkpt><trkpt lat="43.78776427788021" lon="10.931310729440375"><ele>120.0</ele><time>2026-04-16T11:29:20.003Z</time></trkpt><trkpt lat="43.787698116574205" lon="10.93128458156758"><ele>118.83333333333333</ele><time>2026-04-16T11:29:23.003Z</time></trkpt><trkpt lat="43.787621539494275" lon="10.931266768490218"><ele>117.66666666666666</ele><time>2026-04-16T11:29:26.003Z</time></trkpt><trkpt lat="43.78754560930724" lon="10.931262303698514"><ele>116.5</ele><time>2026-04-16T11:29:29.003Z</time></trkpt><trkpt lat="43.78746788111021" lon="10.931229912293176"><ele>115.33333333333333</ele><time>2026-04-16T11:29:32.003Z</time></trkpt><trkpt lat="43.787384082025376" lon="10.931202987030293"><ele>114.16666666666666</ele><time>2026-04-16T11:29:35.003Z</time></trkpt><trkpt lat="43.78731023662212" lon="10.931180151684682"><ele>113.0</ele><time>2026-04-16T11:29:38.003Z</time></trkpt><trkpt lat="43.787230821114896" lon="10.93119536000076"><ele>113.0</ele><time>2026-04-16T11:29:41.005Z</time></trkpt><trkpt lat="43.78714571882818" lon="10.931169659886727"><ele>113.00000000000001</ele><time>2026-04-16T11:29:44.004Z</time></trkpt><trkpt lat="43.78706208642988" lon="10.931127358561863"><ele>113.00000000000001</ele><time>2026-04-16T11:29:47.005Z</time></trkpt><trkpt lat="43.78701638728291" lon="10.931060818334025"><ele>113.0</ele><time>2026-04-16T11:29:49.004Z</time></trkpt><trkpt lat="43.78698565916967" lon="10.930882909282799"><ele>113.0</ele><time>2026-04-16T11:29:54.004Z</time></trkpt><trkpt lat="43.787002249809326" lon="10.930774408241701"><ele>113.0</ele><time>2026-04-16T11:29:57.004Z</time></trkpt><trkpt lat="43.78701110109059" lon="10.930675854258594"><ele>113.0</ele><time>2026-04-16T11:30:00.004Z</time></trkpt><trkpt lat="43.78700552873034" lon="10.93057932382395"><ele>113.0</ele><time>2026-04-16T11:30:03.004Z</time></trkpt><trkpt lat="43.787008891879275" lon="10.930474280804836"><ele>113.0</ele><time>2026-04-16T11:30:06.004Z</time></trkpt><trkpt lat="43.787020948833536" lon="10.930375630577627"><ele>113.0</ele><time>2026-04-16T11:30:09.004Z</time></trkpt><trkpt lat="43.78701156458454" lon="10.930279904984387"><ele>113.0</ele><time>2026-04-16T11:30:12.004Z</time></trkpt><trkpt lat="43.7870030901643" lon="10.930172113417678"><ele>113.0</ele><time>2026-04-16T11:30:15.004Z</time></trkpt><trkpt lat="43.78695716643489" lon="10.930078750062536"><ele>111.49999999999999</ele><time>2026-04-16T11:30:18.004Z</time></trkpt><trkpt lat="43.78691312157819" lon="10.92999298845352"><ele>110.0</ele><time>2026-04-16T11:30:21.004Z</time></trkpt><trkpt lat="43.78686372541085" lon="10.929907479602598"><ele>108.5</ele><time>2026-04-16T11:30:24.004Z</time></trkpt><trkpt lat="43.78681997406722" lon="10.929813439929879"><ele>107.0</ele><time>2026-04-16T11:30:27.004Z</time></trkpt><trkpt lat="43.78676905978079" lon="10.929731410280343"><ele>105.49999999999999</ele><time>2026-04-16T11:30:30.004Z</time></trkpt><trkpt lat="43.78672515529009" lon="10.929640135907984"><ele>104.0</ele><time>2026-04-16T11:30:33.004Z</time></trkpt><trkpt lat="43.786675190771604" lon="10.9295543258069"><ele>103.99999999999999</ele><time>2026-04-16T11:30:36.004Z</time></trkpt><trkpt lat="43.78662562896108" lon="10.929466374183972"><ele>104.0</ele><time>2026-04-16T11:30:39.004Z</time></trkpt><trkpt lat="43.78656224754372" lon="10.929422663674755"><ele>104.0</ele><time>2026-04-16T11:30:42.004Z</time></trkpt><trkpt lat="43.78650254013206" lon="10.929355153998541"><ele>104.0</ele><time>2026-04-16T11:30:45.004Z</time></trkpt><trkpt lat="43.78647531535247" lon="10.929263137785663"><ele>103.99999999999999</ele><time>2026-04-16T11:30:48.004Z</time></trkpt><trkpt lat="43.7865346105151" lon="10.929179782206198"><ele>104.0</ele><time>2026-04-16T11:30:52.004Z</time></trkpt><trkpt lat="43.78660805347601" lon="10.929189887370597"><ele>103.99999999999999</ele><time>2026-04-16T11:30:55.004Z</time></trkpt><trkpt lat="43.78667570236287" lon="10.929211317036295"><ele>104.0</ele><time>2026-04-16T11:30:58.004Z</time></trkpt><trkpt lat="43.78675007062047" lon="10.929225534789882"><ele>104.0</ele><time>2026-04-16T11:31:01.004Z</time></trkpt><trkpt lat="43.7868244036793" lon="10.929249633703742"><ele>104.0</ele><time>2026-04-16T11:31:04.004Z</time></trkpt><trkpt lat="43.78690386289521" lon="10.929261579502144"><ele>103.99999999999999</ele><time>2026-04-16T11:31:07.004Z</time></trkpt><trkpt lat="43.7869697492575" lon="10.929290288600894"><ele>104.0</ele><time>2026-04-16T11:31:10.003Z</time></trkpt><trkpt lat="43.78704861850075" lon="10.92930902877049"><ele>103.49999999999999</ele><time>2026-04-16T11:31:13.003Z</time></trkpt><trkpt lat="43.78712361318773" lon="10.929321445105472"><ele>103.0</ele><time>2026-04-16T11:31:16.003Z</time></trkpt><trkpt lat="43.78719763092596" lon="10.929319135791555"><ele>102.5</ele><time>2026-04-16T11:31:19.003Z</time></trkpt><trkpt lat="43.7872746673724" lon="10.92932501620351"><ele>102.0</ele><time>2026-04-16T11:31:22.003Z</time></trkpt><trkpt lat="43.78734595640293" lon="10.929352898078946"><ele>101.49999999999999</ele><time>2026-04-16T11:31:25.003Z</time></trkpt><trkpt lat="43.78741741831538" lon="10.929389317407654"><ele>101.0</ele><time>2026-04-16T11:31:28.003Z</time></trkpt><trkpt lat="43.78748759224863" lon="10.929427766127247"><ele>100.99999999999999</ele><time>2026-04-16T11:31:31.003Z</time></trkpt><trkpt lat="43.78756971701865" lon="10.929447884229205"><ele>101.0</ele><time>2026-04-16T11:31:34.003Z</time></trkpt><trkpt lat="43.78763728783548" lon="10.929510808994925"><ele>101.0</ele><time>2026-04-16T11:31:37.003Z</time></trkpt><trkpt lat="43.787720906751204" lon="10.9295415852541"><ele>101.0</ele><time>2026-04-16T11:31:40.003Z</time></trkpt><trkpt lat="43.787799379686" lon="10.929564459400922"><ele>100.99999999999999</ele><time>2026-04-16T11:31:43.003Z</time></trkpt><trkpt lat="43.78787907001955" lon="10.929551644107265"><ele>101.0</ele><time>2026-04-16T11:31:46.004Z</time></trkpt><trkpt lat="43.787952180522424" lon="10.929521031325123"><ele>99.99999999999999</ele><time>2026-04-16T11:31:49.005Z</time></trkpt><trkpt lat="43.788027514150265" lon="10.929530878592974"><ele>99.0</ele><time>2026-04-16T11:31:52.005Z</time></trkpt><trkpt lat="43.78811130399424" lon="10.929522936386613"><ele>98.0</ele><time>2026-04-16T11:31:55.004Z</time></trkpt><trkpt lat="43.788197603372765" lon="10.929478786358697"><ele>97.0</ele><time>2026-04-16T11:31:58.004Z</time></trkpt><trkpt lat="43.78827686033794" lon="10.929469057697226"><ele>96.0</ele><time>2026-04-16T11:32:01.004Z</time></trkpt><trkpt lat="43.78834798148496" lon="10.92949662658196"><ele>95.0</ele><time>2026-04-16T11:32:04.004Z</time></trkpt><trkpt lat="43.78842661814275" lon="10.929549835496308"><ele>95.0</ele><time>2026-04-16T11:32:07.004Z</time></trkpt><trkpt lat="43.78850049152736" lon="10.92955681539514"><ele>95.0</ele><time>2026-04-16T11:32:10.004Z</time></trkpt><trkpt lat="43.78858327517935" lon="10.929579565874436"><ele>95.0</ele><time>2026-04-16T11:32:13.004Z</time></trkpt><trkpt lat="43.78865861153266" lon="10.929640511324063"><ele>95.0</ele><time>2026-04-16T11:32:16.004Z</time></trkpt><trkpt lat="43.78872766943067" lon="10.929660276587551"><ele>95.0</ele><time>2026-04-16T11:32:19.004Z</time></trkpt><trkpt lat="43.788807827176775" lon="10.929697408397237"><ele>95.0</ele><time>2026-04-16T11:32:22.004Z</time></trkpt><trkpt lat="43.788889012338366" lon="10.929739378239619"><ele>94.0</ele><time>2026-04-16T11:32:25.004Z</time></trkpt><trkpt lat="43.78897080377862" lon="10.929768337515513"><ele>93.0</ele><time>2026-04-16T11:32:28.004Z</time></trkpt><trkpt lat="43.78910122083425" lon="10.929801295088122"><ele>92.0</ele><time>2026-04-16T11:32:33.004Z</time></trkpt><trkpt lat="43.78917762929289" lon="10.929812991450662"><ele>91.0</ele><time>2026-04-16T11:32:36.004Z</time></trkpt><trkpt lat="43.7892464795886" lon="10.929835032214296"><ele>90.0</ele><time>2026-04-16T11:32:39.004Z</time></trkpt><trkpt lat="43.78931752681222" lon="10.929825953354301"><ele>89.0</ele><time>2026-04-16T11:32:44.004Z</time></trkpt><trkpt lat="43.78935905090917" lon="10.929892803724663"><ele>88.85714285714285</ele><time>2026-04-16T11:32:49.004Z</time></trkpt><trkpt lat="43.789420300429434" lon="10.929941146207867"><ele>88.71428571428571</ele><time>2026-04-16T11:32:54.004Z</time></trkpt><trkpt lat="43.78948745901677" lon="10.929950634502275"><ele>88.57142857142857</ele><time>2026-04-16T11:32:59.004Z</time></trkpt><trkpt lat="43.78955014125162" lon="10.929975327985876"><ele>88.42857142857142</ele><time>2026-04-16T11:33:04.004Z</time></trkpt><trkpt lat="43.78962417321092" lon="10.929993978212659"><ele>88.28571428571428</ele><time>2026-04-16T11:33:10.004Z</time></trkpt><trkpt lat="43.789683669706946" lon="10.929918976771763"><ele>88.14285714285714</ele><time>2026-04-16T11:33:16.004Z</time></trkpt><trkpt lat="43.78968718742698" lon="10.929827319418898"><ele>88.0</ele><time>2026-04-16T11:33:20.004Z</time></trkpt><trkpt lat="43.78965436766038" lon="10.929744736649377"><ele>88.0</ele><time>2026-04-16T11:33:26.004Z</time></trkpt><trkpt lat="43.789641810943344" lon="10.929649814822902"><ele>88.0</ele><time>2026-04-16T11:33:32.003Z</time></trkpt><trkpt lat="43.789602458379605" lon="10.929578638424655"><ele>88.0</ele><time>2026-04-16T11:33:36.003Z</time></trkpt><trkpt lat="43.78957269159822" lon="10.929486331202362"><ele>88.0</ele><time>2026-04-16T11:33:40.003Z</time></trkpt><trkpt lat="43.78952541258007" lon="10.929404610360816"><ele>88.0</ele><time>2026-04-16T11:33:44.003Z</time></trkpt><trkpt lat="43.78948597922789" lon="10.929332900115593"><ele>88.0</ele><time>2026-04-16T11:33:48.003Z</time></trkpt><trkpt lat="43.78943974426772" lon="10.929255618491126"><ele>88.0</ele><time>2026-04-16T11:33:52.004Z</time></trkpt><trkpt lat="43.789394645444254" lon="10.929177903667357"><ele>88.57142857142857</ele><time>2026-04-16T11:33:56.004Z</time></trkpt><trkpt lat="43.78935629076813" lon="10.929095458158478"><ele>89.14285714285714</ele><time>2026-04-16T11:34:01.005Z</time></trkpt><trkpt lat="43.78930839424641" lon="10.92901916875267"><ele>89.71428571428572</ele><time>2026-04-16T11:34:05.004Z</time></trkpt><trkpt lat="43.78927209469206" lon="10.928934385824652"><ele>90.28571428571428</ele><time>2026-04-16T11:34:09.004Z</time></trkpt><trkpt lat="43.78922424756916" lon="10.92886321620384"><ele>90.85714285714285</ele><time>2026-04-16T11:34:13.004Z</time></trkpt><trkpt lat="43.789171856033704" lon="10.928778535361184"><ele>91.42857142857143</ele><time>2026-04-16T11:34:18.004Z</time></trkpt><trkpt lat="43.789136225299124" lon="10.928701345480786"><ele>92.0</ele><time>2026-04-16T11:34:22.004Z</time></trkpt><trkpt lat="43.7890906587566" lon="10.928622954268405"><ele>91.14285714285715</ele><time>2026-04-16T11:34:26.004Z</time></trkpt><trkpt lat="43.789044848338236" lon="10.928542060120433"><ele>90.28571428571428</ele><time>2026-04-16T11:34:30.004Z</time></trkpt><trkpt lat="43.78901089137076" lon="10.92846689293472"><ele>89.42857142857143</ele><time>2026-04-16T11:34:33.004Z</time></trkpt><trkpt lat="43.78895989208345" lon="10.928399338623038"><ele>88.57142857142858</ele><time>2026-04-16T11:34:37.004Z</time></trkpt><trkpt lat="43.788913726563344" lon="10.92832495870333"><ele>87.71428571428572</ele><time>2026-04-16T11:34:41.004Z</time></trkpt><trkpt lat="43.78886446285009" lon="10.92823533318795"><ele>86.85714285714286</ele><time>2026-04-16T11:34:45.004Z</time></trkpt><trkpt lat="43.78882063867138" lon="10.928164823963604"><ele>86.0</ele><time>2026-04-16T11:34:48.004Z</time></trkpt><trkpt lat="43.78874804728063" lon="10.928117401606086"><ele>86.00000000000001</ele><time>2026-04-16T11:34:52.004Z</time></trkpt><trkpt lat="43.78868508557058" lon="10.928035888114673"><ele>86.0</ele><time>2026-04-16T11:34:56.004Z</time></trkpt><trkpt lat="43.78863805545474" lon="10.927968054334583"><ele>86.0</ele><time>2026-04-16T11:34:59.004Z</time></trkpt><trkpt lat="43.788583279497274" lon="10.927907584785732"><ele>86.0</ele><time>2026-04-16T11:35:02.004Z</time></trkpt><trkpt lat="43.788516849339885" lon="10.927850809958993"><ele>86.0</ele><time>2026-04-16T11:35:06.004Z</time></trkpt><trkpt lat="43.788461105775" lon="10.927790987794538"><ele>86.00000000000001</ele><time>2026-04-16T11:35:10.004Z</time></trkpt><trkpt lat="43.78839703353206" lon="10.927743074769646"><ele>86.0</ele><time>2026-04-16T11:35:14.004Z</time></trkpt><trkpt lat="43.788339418784176" lon="10.927682499464654"><ele>85.33333333333334</ele><time>2026-04-16T11:35:18.004Z</time></trkpt><trkpt lat="43.78827908893656" lon="10.927620795446932"><ele>84.66666666666667</ele><time>2026-04-16T11:35:22.004Z</time></trkpt><trkpt lat="43.78823317442175" lon="10.927536721131174"><ele>84.0</ele><time>2026-04-16T11:35:26.004Z</time></trkpt><trkpt lat="43.788164426033845" lon="10.927487147327268"><ele>83.33333333333333</ele><time>2026-04-16T11:35:30.004Z</time></trkpt><trkpt lat="43.78810512043635" lon="10.927421416067657"><ele>82.66666666666666</ele><time>2026-04-16T11:35:34.004Z</time></trkpt><trkpt lat="43.78804462699469" lon="10.92734826349913"><ele>82.0</ele><time>2026-04-16T11:35:38.004Z</time></trkpt><trkpt lat="43.78799600051905" lon="10.927285616479864"><ele>82.99999999999999</ele><time>2026-04-16T11:35:41.004Z</time></trkpt><trkpt lat="43.787932020087275" lon="10.927221046945766"><ele>84.0</ele><time>2026-04-16T11:35:45.004Z</time></trkpt><trkpt lat="43.78788040149313" lon="10.927170949896487"><ele>85.0</ele><time>2026-04-16T11:35:48.004Z</time></trkpt><trkpt lat="43.787817166075605" lon="10.927106672283472"><ele>86.0</ele><time>2026-04-16T11:35:52.004Z</time></trkpt><trkpt lat="43.78775592805004" lon="10.92708026241892"><ele>87.0</ele><time>2026-04-16T11:35:55.004Z</time></trkpt><trkpt lat="43.787683367962856" lon="10.92702332985936"><ele>87.99999999999999</ele><time>2026-04-16T11:35:59.004Z</time></trkpt><trkpt lat="43.787634382634245" lon="10.926959168590983"><ele>89.0</ele><time>2026-04-16T11:36:02.004Z</time></trkpt><trkpt lat="43.78756688467913" lon="10.92692936676707"><ele>88.99999999999999</ele><time>2026-04-16T11:36:05.005Z</time></trkpt><trkpt lat="43.787506350707716" lon="10.926860045052875"><ele>89.0</ele><time>2026-04-16T11:36:08.005Z</time></trkpt><trkpt lat="43.78744039297274" lon="10.926815678364399"><ele>89.0</ele><time>2026-04-16T11:36:11.004Z</time></trkpt><trkpt lat="43.78738853253809" lon="10.92674348881698"><ele>89.0</ele><time>2026-04-16T11:36:14.004Z</time></trkpt><trkpt lat="43.78733364877228" lon="10.92669221444327"><ele>89.0</ele><time>2026-04-16T11:36:17.004Z</time></trkpt><trkpt lat="43.7872647045839" lon="10.926665873375905"><ele>88.99999999999999</ele><time>2026-04-16T11:36:20.004Z</time></trkpt><trkpt lat="43.78718673952745" lon="10.926630449533308"><ele>89.0</ele><time>2026-04-16T11:36:24.004Z</time></trkpt><trkpt lat="43.78712307275844" lon="10.926609115934617"><ele>88.85714285714285</ele><time>2026-04-16T11:36:27.004Z</time></trkpt><trkpt lat="43.78705912574815" lon="10.926601007141125"><ele>88.71428571428571</ele><time>2026-04-16T11:36:30.004Z</time></trkpt><trkpt lat="43.78698868380548" lon="10.926591248514205"><ele>88.57142857142857</ele><time>2026-04-16T11:36:33.004Z</time></trkpt><trkpt lat="43.786918975705824" lon="10.926595686857587"><ele>88.42857142857142</ele><time>2026-04-16T11:36:36.004Z</time></trkpt><trkpt lat="43.78684637714615" lon="10.926624454175162"><ele>88.28571428571428</ele><time>2026-04-16T11:36:39.004Z</time></trkpt><trkpt lat="43.786779530134936" lon="10.926668232266382"><ele>88.14285714285714</ele><time>2026-04-16T11:36:42.004Z</time></trkpt><trkpt lat="43.786712088650056" lon="10.926677746668133"><ele>88.0</ele><time>2026-04-16T11:36:45.004Z</time></trkpt><trkpt lat="43.78664849190324" lon="10.926641790220817"><ele>88.0</ele><time>2026-04-16T11:36:48.004Z</time></trkpt><trkpt lat="43.78661565676565" lon="10.926553608182477"><ele>88.0</ele><time>2026-04-16T11:36:51.004Z</time></trkpt><trkpt lat="43.78655431643995" lon="10.9264977359891"><ele>88.0</ele><time>2026-04-16T11:36:54.004Z</time></trkpt><trkpt lat="43.786491784427845" lon="10.92643380676045"><ele>88.0</ele><time>2026-04-16T11:36:57.004Z</time></trkpt><trkpt lat="43.78644230485751" lon="10.926354670254364"><ele>88.0</ele><time>2026-04-16T11:37:00.004Z</time></trkpt><trkpt lat="43.78637509865703" lon="10.926295926342267"><ele>88.0</ele><time>2026-04-16T11:37:03.004Z</time></trkpt><trkpt lat="43.78629676536683" lon="10.926238652811813"><ele>88.0</ele><time>2026-04-16T11:37:06.004Z</time></trkpt><trkpt lat="43.7862151022756" lon="10.92619314750578"><ele>88.0</ele><time>2026-04-16T11:37:09.004Z</time></trkpt><trkpt lat="43.786143676345255" lon="10.92613688761024"><ele>88.0</ele><time>2026-04-16T11:37:12.004Z</time></trkpt><trkpt lat="43.78608095690122" lon="10.926078607436313"><ele>88.0</ele><time>2026-04-16T11:37:15.004Z</time></trkpt><trkpt lat="43.786020204507125" lon="10.926020629640709"><ele>88.0</ele><time>2026-04-16T11:37:18.004Z</time></trkpt><trkpt lat="43.78594951224937" lon="10.925951460145917"><ele>88.0</ele><time>2026-04-16T11:37:21.004Z</time></trkpt><trkpt lat="43.785882291146734" lon="10.925891430258075"><ele>86.5</ele><time>2026-04-16T11:37:24.004Z</time></trkpt><trkpt lat="43.785818292898306" lon="10.925828132220463"><ele>85.0</ele><time>2026-04-16T11:37:27.004Z</time></trkpt><trkpt lat="43.78575298689855" lon="10.925744545116398"><ele>83.5</ele><time>2026-04-16T11:37:30.004Z</time></trkpt><trkpt lat="43.78569792746731" lon="10.925658449804239"><ele>82.0</ele><time>2026-04-16T11:37:33.004Z</time></trkpt><trkpt lat="43.7856321020324" lon="10.92558019130683"><ele>80.5</ele><time>2026-04-16T11:37:36.004Z</time></trkpt><trkpt lat="43.78557232645317" lon="10.925525086571334"><ele>79.0</ele><time>2026-04-16T11:37:39.004Z</time></trkpt><trkpt lat="43.785504223872145" lon="10.925523262313241"><ele>79.0</ele><time>2026-04-16T11:37:41.004Z</time></trkpt><trkpt lat="43.785431487728225" lon="10.925462970045379"><ele>79.0</ele><time>2026-04-16T11:37:44.004Z</time></trkpt><trkpt lat="43.78536693700446" lon="10.92538654200069"><ele>79.0</ele><time>2026-04-16T11:37:47.004Z</time></trkpt><trkpt lat="43.78529680727145" lon="10.925353739414577"><ele>79.0</ele><time>2026-04-16T11:37:50.004Z</time></trkpt><trkpt lat="43.785231208758724" lon="10.925326699588732"><ele>79.0</ele><time>2026-04-16T11:37:53.004Z</time></trkpt><trkpt lat="43.78517901385317" lon="10.925249228890438"><ele>79.0</ele><time>2026-04-16T11:37:56.004Z</time></trkpt><trkpt lat="43.785109690783386" lon="10.925200747788642"><ele>77.83333333333333</ele><time>2026-04-16T11:37:59.004Z</time></trkpt><trkpt lat="43.78503090860475" lon="10.925143742022073"><ele>76.66666666666666</ele><time>2026-04-16T11:38:02.004Z</time></trkpt><trkpt lat="43.784992778113626" lon="10.925073955767477"><ele>75.5</ele><time>2026-04-16T11:38:04.005Z</time></trkpt><trkpt lat="43.78495178483337" lon="10.924961729922869"><ele>74.33333333333333</ele><time>2026-04-16T11:38:07.005Z</time></trkpt><trkpt lat="43.7848838879251" lon="10.924911426795378"><ele>73.16666666666667</ele><time>2026-04-16T11:38:10.005Z</time></trkpt><trkpt lat="43.784826460462675" lon="10.92485579675146"><ele>72.0</ele><time>2026-04-16T11:38:14.005Z</time></trkpt><trkpt lat="43.78482794012126" lon="10.924735475200556"><ele>72.00000000000001</ele><time>2026-04-16T11:38:17.006Z</time></trkpt><trkpt lat="43.78484976461635" lon="10.924627913855272"><ele>72.0</ele><time>2026-04-16T11:38:20.006Z</time></trkpt><trkpt lat="43.784859436286425" lon="10.92451648037303"><ele>72.0</ele><time>2026-04-16T11:38:23.005Z</time></trkpt><trkpt lat="43.784781988332966" lon="10.924472383630974"><ele>72.0</ele><time>2026-04-16T11:38:26.005Z</time></trkpt><trkpt lat="43.784726747443834" lon="10.924411590106445"><ele>72.0</ele><time>2026-04-16T11:38:29.005Z</time></trkpt><trkpt lat="43.784686656219634" lon="10.924341806397496"><ele>72.00000000000001</ele><time>2026-04-16T11:38:32.005Z</time></trkpt><trkpt lat="43.78463921352921" lon="10.924281042210882"><ele>72.0</ele><time>2026-04-16T11:38:35.005Z</time></trkpt><trkpt lat="43.784580197693735" lon="10.924218017149421"><ele>71.16666666666667</ele><time>2026-04-16T11:38:39.005Z</time></trkpt><trkpt lat="43.784613190359" lon="10.92410769190805"><ele>70.33333333333333</ele><time>2026-04-16T11:38:42.005Z</time></trkpt><trkpt lat="43.78467432800129" lon="10.924034658048283"><ele>69.5</ele><time>2026-04-16T11:38:45.005Z</time></trkpt><trkpt lat="43.784750073134816" lon="10.9239905044906"><ele>68.66666666666666</ele><time>2026-04-16T11:38:48.005Z</time></trkpt><trkpt lat="43.78481550360583" lon="10.923928220675652"><ele>67.83333333333333</ele><time>2026-04-16T11:38:51.005Z</time></trkpt><trkpt lat="43.784873659574615" lon="10.92385100823528"><ele>67.0</ele><time>2026-04-16T11:38:54.005Z</time></trkpt><trkpt lat="43.78493415786748" lon="10.923784500614762"><ele>67.0</ele><time>2026-04-16T11:38:57.005Z</time></trkpt><trkpt lat="43.78499399951964" lon="10.923716428658713"><ele>67.0</ele><time>2026-04-16T11:39:00.005Z</time></trkpt><trkpt lat="43.785033050969915" lon="10.923647766118382"><ele>67.0</ele><time>2026-04-16T11:39:02.005Z</time></trkpt><trkpt lat="43.78510710872348" lon="10.923579440705566"><ele>67.0</ele><time>2026-04-16T11:39:05.005Z</time></trkpt><trkpt lat="43.78519175689605" lon="10.923523652872548"><ele>67.0</ele><time>2026-04-16T11:39:08.005Z</time></trkpt><trkpt lat="43.78525748847248" lon="10.923454073424152"><ele>67.0</ele><time>2026-04-16T11:39:11.005Z</time></trkpt><trkpt lat="43.785329693749965" lon="10.923382560011266"><ele>64.83333333333333</ele><time>2026-04-16T11:39:14.005Z</time></trkpt><trkpt lat="43.78540289475857" lon="10.923303274691435"><ele>62.666666666666664</ele><time>2026-04-16T11:39:17.005Z</time></trkpt><trkpt lat="43.78547366277141" lon="10.92322971603492"><ele>60.5</ele><time>2026-04-16T11:39:20.005Z</time></trkpt><trkpt lat="43.78554170826318" lon="10.923171127319577"><ele>58.33333333333333</ele><time>2026-04-16T11:39:23.005Z</time></trkpt><trkpt lat="43.785596456407106" lon="10.923093596880635"><ele>56.166666666666664</ele><time>2026-04-16T11:39:26.005Z</time></trkpt><trkpt lat="43.78567042151211" lon="10.923044624935848"><ele>54.0</ele><time>2026-04-16T11:39:29.005Z</time></trkpt><trkpt lat="43.78572925416971" lon="10.922988589580811"><ele>54.0</ele><time>2026-04-16T11:39:32.005Z</time></trkpt><trkpt lat="43.78578570394862" lon="10.92293355636538"><ele>54.0</ele><time>2026-04-16T11:39:35.005Z</time></trkpt><trkpt lat="43.78583815274361" lon="10.922883196994084"><ele>54.0</ele><time>2026-04-16T11:39:38.005Z</time></trkpt><trkpt lat="43.78589770405519" lon="10.92280688792289"><ele>54.0</ele><time>2026-04-16T11:39:42.005Z</time></trkpt><trkpt lat="43.7859403400812" lon="10.92274024596907"><ele>54.0</ele><time>2026-04-16T11:39:45.005Z</time></trkpt><trkpt lat="43.786003894026756" lon="10.922667388148579"><ele>54.0</ele><time>2026-04-16T11:39:49.005Z</time></trkpt><trkpt lat="43.78605373178044" lon="10.922595771884355"><ele>54.0</ele><time>2026-04-16T11:39:53.005Z</time></trkpt><trkpt lat="43.78611337485877" lon="10.922535853863877"><ele>55.666666666666664</ele><time>2026-04-16T11:39:57.005Z</time></trkpt><trkpt lat="43.78618065864687" lon="10.922464032651748"><ele>57.33333333333333</ele><time>2026-04-16T11:40:01.005Z</time></trkpt><trkpt lat="43.786239159180326" lon="10.922380349603745"><ele>59.0</ele><time>2026-04-16T11:40:05.005Z</time></trkpt><trkpt lat="43.786307711551586" lon="10.922310434265057"><ele>60.666666666666664</ele><time>2026-04-16T11:40:09.005Z</time></trkpt><trkpt lat="43.78636222864702" lon="10.92223747638057"><ele>62.33333333333333</ele><time>2026-04-16T11:40:13.006Z</time></trkpt><trkpt lat="43.78641175422134" lon="10.922155421662492"><ele>64.0</ele><time>2026-04-16T11:40:17.005Z</time></trkpt><trkpt lat="43.78637933304913" lon="10.922065152963384"><ele>64.0</ele><time>2026-04-16T11:40:20.006Z</time></trkpt><trkpt lat="43.78632568760798" lon="10.922012188708333"><ele>63.99999999999999</ele><time>2026-04-16T11:40:23.005Z</time></trkpt><trkpt lat="43.786265161545586" lon="10.921945477183035"><ele>64.0</ele><time>2026-04-16T11:40:27.005Z</time></trkpt><trkpt lat="43.78619053485101" lon="10.921918850135912"><ele>64.0</ele><time>2026-04-16T11:40:31.005Z</time></trkpt><trkpt lat="43.786145195470766" lon="10.921979511021965"><ele>63.99999999999999</ele><time>2026-04-16T11:40:34.005Z</time></trkpt><trkpt lat="43.78608407809708" lon="10.922033179970011"><ele>64.0</ele><time>2026-04-16T11:40:37.005Z</time></trkpt><trkpt lat="43.78602355777629" lon="10.922071994026838"><ele>64.0</ele><time>2026-04-16T11:40:40.005Z</time></trkpt><trkpt lat="43.78595301697533" lon="10.92210214241549"><ele>62.71428571428571</ele><time>2026-04-16T11:40:43.005Z</time></trkpt><trkpt lat="43.785889148417304" lon="10.922135835941397"><ele>61.42857142857142</ele><time>2026-04-16T11:40:46.005Z</time></trkpt><trkpt lat="43.785815583018874" lon="10.92216787815967"><ele>60.14285714285714</ele><time>2026-04-16T11:40:49.005Z</time></trkpt><trkpt lat="43.78575248392401" lon="10.92220018698443"><ele>58.857142857142854</ele><time>2026-04-16T11:40:52.005Z</time></trkpt><trkpt lat="43.78568149837831" lon="10.922211752637072"><ele>57.57142857142857</ele><time>2026-04-16T11:40:55.005Z</time></trkpt><trkpt lat="43.78560349557994" lon="10.922242760132985"><ele>56.28571428571428</ele><time>2026-04-16T11:40:58.005Z</time></trkpt><trkpt lat="43.78553115215099" lon="10.92227373156439"><ele>55.0</ele><time>2026-04-16T11:41:01.005Z</time></trkpt><trkpt lat="43.78546337599988" lon="10.922320190872455"><ele>54.99999999999999</ele><time>2026-04-16T11:41:04.005Z</time></trkpt><trkpt lat="43.78538962499203" lon="10.922378015880296"><ele>55.0</ele><time>2026-04-16T11:41:07.005Z</time></trkpt><trkpt lat="43.785324641152634" lon="10.922366976050583"><ele>55.0</ele><time>2026-04-16T11:41:10.005Z</time></trkpt><trkpt lat="43.785259348604924" lon="10.922310714804876"><ele>55.0</ele><time>2026-04-16T11:41:13.005Z</time></trkpt><trkpt lat="43.78519882321191" lon="10.922241485267088"><ele>54.99999999999999</ele><time>2026-04-16T11:41:16.005Z</time></trkpt><trkpt lat="43.78514372934687" lon="10.9221635809243"><ele>55.0</ele><time>2026-04-16T11:41:19.005Z</time></trkpt><trkpt lat="43.78508692218924" lon="10.922095540412753"><ele>55.166666666666664</ele><time>2026-04-16T11:41:22.005Z</time></trkpt><trkpt lat="43.78502718076849" lon="10.922020013451602"><ele>55.33333333333333</ele><time>2026-04-16T11:41:25.005Z</time></trkpt><trkpt lat="43.78497189955285" lon="10.921949221933517"><ele>55.5</ele><time>2026-04-16T11:41:28.005Z</time></trkpt><trkpt lat="43.7849203330167" lon="10.921857012779665"><ele>55.66666666666667</ele><time>2026-04-16T11:41:31.005Z</time></trkpt><trkpt lat="43.78486013467207" lon="10.921777322672012"><ele>55.833333333333336</ele><time>2026-04-16T11:41:34.005Z</time></trkpt><trkpt lat="43.78480496440052" lon="10.921713141900426"><ele>56.0</ele><time>2026-04-16T11:41:37.005Z</time></trkpt><trkpt lat="43.78474411428261" lon="10.921674976360979"><ele>56.00000000000001</ele><time>2026-04-16T11:41:40.005Z</time></trkpt><trkpt lat="43.78465933230991" lon="10.921691821077005"><ele>56.0</ele><time>2026-04-16T11:41:43.005Z</time></trkpt><trkpt lat="43.78458400759837" lon="10.92166282550745"><ele>56.0</ele><time>2026-04-16T11:41:46.005Z</time></trkpt><trkpt lat="43.78453392832465" lon="10.921609628582678"><ele>56.0</ele><time>2026-04-16T11:41:48.005Z</time></trkpt><trkpt lat="43.784465196930675" lon="10.921541306697383"><ele>56.00000000000001</ele><time>2026-04-16T11:41:51.005Z</time></trkpt><trkpt lat="43.784398276312366" lon="10.921476229676806"><ele>56.0</ele><time>2026-04-16T11:41:54.005Z</time></trkpt><trkpt lat="43.784336861219295" lon="10.921401543693522"><ele>55.00000000000001</ele><time>2026-04-16T11:41:57.005Z</time></trkpt><trkpt lat="43.78431013313772" lon="10.921316773942495"><ele>54.0</ele><time>2026-04-16T11:41:59.005Z</time></trkpt><trkpt lat="43.784284243418035" lon="10.921236708057386"><ele>53.0</ele><time>2026-04-16T11:42:01.005Z</time></trkpt><trkpt lat="43.78424042567876" lon="10.921131836001205"><ele>52.0</ele><time>2026-04-16T11:42:04.005Z</time></trkpt><trkpt lat="43.78419869152642" lon="10.921025647073117"><ele>51.00000000000001</ele><time>2026-04-16T11:42:07.005Z</time></trkpt><trkpt lat="43.78416493145426" lon="10.920912369999066"><ele>50.0</ele><time>2026-04-16T11:42:10.005Z</time></trkpt><trkpt lat="43.78413146235698" lon="10.920804427478105"><ele>49.66666666666667</ele><time>2026-04-16T11:42:13.005Z</time></trkpt><trkpt lat="43.78410754195297" lon="10.920691170658838"><ele>49.333333333333336</ele><time>2026-04-16T11:42:16.005Z</time></trkpt><trkpt lat="43.78407225590153" lon="10.92058222131681"><ele>49.0</ele><time>2026-04-16T11:42:19.006Z</time></trkpt><trkpt lat="43.784029804442866" lon="10.920492926174049"><ele>48.66666666666667</ele><time>2026-04-16T11:42:22.006Z</time></trkpt><trkpt lat="43.78396711981203" lon="10.920465855478675"><ele>48.333333333333336</ele><time>2026-04-16T11:42:25.006Z</time></trkpt><trkpt lat="43.78391177415822" lon="10.920536130315108"><ele>48.0</ele><time>2026-04-16T11:42:29.006Z</time></trkpt><trkpt lat="43.78384754198836" lon="10.920598681168038"><ele>47.99999999999999</ele><time>2026-04-16T11:42:33.006Z</time></trkpt><trkpt lat="43.783783776301725" lon="10.920648396919571"><ele>48.0</ele><time>2026-04-16T11:42:37.006Z</time></trkpt><trkpt lat="43.78373364264414" lon="10.920705823034597"><ele>48.0</ele><time>2026-04-16T11:42:40.006Z</time></trkpt><trkpt lat="43.78367544191818" lon="10.920767502703264"><ele>48.0</ele><time>2026-04-16T11:42:44.006Z</time></trkpt><trkpt lat="43.78362105180594" lon="10.920828630500013"><ele>48.0</ele><time>2026-04-16T11:42:48.006Z</time></trkpt><trkpt lat="43.7835683416336" lon="10.920882218142852"><ele>47.99999999999999</ele><time>2026-04-16T11:42:52.006Z</time></trkpt><trkpt lat="43.783504055183116" lon="10.920920152158127"><ele>48.0</ele><time>2026-04-16T11:42:58.006Z</time></trkpt><trkpt lat="43.78344185010565" lon="10.920960512918478"><ele>49.42857142857142</ele><time>2026-04-16T11:43:04.006Z</time></trkpt><trkpt lat="43.78338060082164" lon="10.920991629447746"><ele>50.85714285714286</ele><time>2026-04-16T11:43:10.006Z</time></trkpt><trkpt lat="43.7833173882818" lon="10.921033224047132"><ele>52.28571428571429</ele><time>2026-04-16T11:43:17.006Z</time></trkpt><trkpt lat="43.78327207747358" lon="10.921095216882986"><ele>53.714285714285715</ele><time>2026-04-16T11:43:23.006Z</time></trkpt><trkpt lat="43.783206718308286" lon="10.92115480902862"><ele>55.142857142857146</ele><time>2026-04-16T11:43:29.006Z</time></trkpt><trkpt lat="43.78314828176063" lon="10.921195567126526"><ele>56.57142857142858</ele><time>2026-04-16T11:43:35.006Z</time></trkpt><trkpt lat="43.78309406473852" lon="10.921247395989258"><ele>58.00000000000001</ele><time>2026-04-16T11:43:40.006Z</time></trkpt><trkpt lat="43.78305206376774" lon="10.921316034292756"><ele>58.00000000000001</ele><time>2026-04-16T11:43:45.005Z</time></trkpt><trkpt lat="43.7829931046807" lon="10.921381824462976"><ele>58.0</ele><time>2026-04-16T11:43:50.005Z</time></trkpt><trkpt lat="43.78292511022855" lon="10.921415379904369"><ele>58.00000000000001</ele><time>2026-04-16T11:43:56.005Z</time></trkpt><trkpt lat="43.7828606661675" lon="10.92144940863643"><ele>58.00000000000001</ele><time>2026-04-16T11:44:02.005Z</time></trkpt><trkpt lat="43.78279840281747" lon="10.921496614812582"><ele>58.0</ele><time>2026-04-16T11:44:09.005Z</time></trkpt><trkpt lat="43.782743829839575" lon="10.921563469750692"><ele>58.00000000000001</ele><time>2026-04-16T11:44:15.005Z</time></trkpt><trkpt lat="43.78268413932282" lon="10.921614688445239"><ele>58.00000000000001</ele><time>2026-04-16T11:44:22.006Z</time></trkpt><trkpt lat="43.7826222178683" lon="10.921677786065423"><ele>59.0</ele><time>2026-04-16T11:44:29.006Z</time></trkpt><trkpt lat="43.78255946582627" lon="10.921724494100307"><ele>59.0</ele><time>2026-04-16T11:44:36.005Z</time></trkpt><trkpt lat="43.78250964868613" lon="10.92178628967032"><ele>66.0</ele><time>2026-04-16T11:44:42.005Z</time></trkpt><trkpt lat="43.78253453920148" lon="10.921878595583248"><ele>66.0</ele><time>2026-04-16T11:44:48.005Z</time></trkpt></trkseg></trk></gpx>